Observation data for Coyanosa on 01/17/2019      Previous  Date  Next       Current Mesonet Observations  Soil Data  Daily Summary Page  Observations in Plain Language
KCO1 170600Z 21007KT 09/03 A3017 RMK A01 T00900034  RH  068%=      5-min Rain = 0
KCO1 170601Z 21006KT 09/03 A3017 RMK A01 T00900034  RH  068%=      5-min Rain = 0
KCO1 170602Z 21006KT 09/03 A3017 RMK A01 T00890034  RH  068%=      5-min Rain = 0
KCO1 170603Z 21006KT 09/03 A3017 RMK A01 T00890034  RH  068%=      5-min Rain = 0
KCO1 170604Z 21006KT 09/03 A3017 RMK A01 T00900034  RH  068%=      5-min Rain = 0
KCO1 170605Z 21006KT 09/03 A3017 RMK A01 T00900034  RH  068%=      5-min Rain = 0
KCO1 170606Z 21006KT 09/04 A3017 RMK A01 T00910035  RH  068%=      5-min Rain = 0
KCO1 170607Z 21007KT 09/04 A3017 RMK A01 T00920035  RH  067%=      5-min Rain = 0
KCO1 170608Z 21007KT 09/04 A3017 RMK A01 T00930035  RH  067%=      5-min Rain = 0
KCO1 170609Z 21006KT 09/04 A3017 RMK A01 T00930035  RH  067%=      5-min Rain = 0
KCO1 170610Z 21006KT 09/04 A3017 RMK A01 T00930035  RH  067%=      5-min Rain = 0
KCO1 170611Z 21006KT 09/04 A3017 RMK A01 T00930035  RH  067%=      5-min Rain = 0
KCO1 170612Z 21006KT 09/03 A3017 RMK A01 T00930034  RH  067%=      5-min Rain = 0
KCO1 170613Z 22007KT 09/03 A3017 RMK A01 T00930034  RH  067%=      5-min Rain = 0
KCO1 170614Z 21007KT 09/03 A3017 RMK A01 T00930034  RH  067%=      5-min Rain = 0
KCO1 170615Z 22006KT 09/03 A3017 RMK A01 T00930034  RH  067%=      5-min Rain = 0
KCO1 170616Z 22006KT 09/03 A3017 RMK A01 T00920033  RH  067%=      5-min Rain = 0
KCO1 170617Z 22005KT 09/03 A3017 RMK A01 T00910033  RH  067%=      5-min Rain = 0
KCO1 170618Z 22006KT 09/03 A3017 RMK A01 T00910033  RH  067%=      5-min Rain = 0
KCO1 170619Z 22006KT 09/03 A3017 RMK A01 T00900033  RH  067%=      5-min Rain = 0
KCO1 170620Z 23007KT 09/03 A3017 RMK A01 T00900033  RH  067%=      5-min Rain = 0
KCO1 170621Z 23007KT 09/03 A3017 RMK A01 T00900033  RH  067%=      5-min Rain = 0
KCO1 170622Z 23008KT 09/03 A3017 RMK A01 T00910033  RH  067%=      5-min Rain = 0
KCO1 170623Z 23008KT 09/03 A3017 RMK A01 T00920034  RH  067%=      5-min Rain = 0
KCO1 170624Z 23008KT 09/03 A3017 RMK A01 T00930034  RH  067%=      5-min Rain = 0
KCO1 170625Z 23008KT 10/04 A3017 RMK A01 T00950035  RH  066%=      5-min Rain = 0
KCO1 170626Z 23008KT 10/04 A3017 RMK A01 T00960035  RH  066%=      5-min Rain = 0
KCO1 170627Z 23008KT 10/04 A3017 RMK A01 T00960035  RH  065%=      5-min Rain = 0
KCO1 170628Z 23008KT 10/04 A3017 RMK A01 T00970035  RH  065%=      5-min Rain = 0
KCO1 170629Z 23008KT 10/04 A3017 RMK A01 T00980035  RH  065%=      5-min Rain = 0
KCO1 170630Z 23008KT 10/04 A3017 RMK A01 T00980035  RH  065%=      5-min Rain = 0
KCO1 170631Z 23008KT 10/03 A3017 RMK A01 T00980034  RH  065%=      5-min Rain = 0
KCO1 170632Z 23007KT 10/03 A3017 RMK A01 T00980034  RH  065%=      5-min Rain = 0
KCO1 170633Z 23007KT 10/04 A3017 RMK A01 T00980035  RH  065%=      5-min Rain = 0
KCO1 170634Z 23007KT 10/03 A3017 RMK A01 T00970034  RH  065%=      5-min Rain = 0
KCO1 170635Z 23007KT 10/03 A3017 RMK A01 T00980034  RH  065%=      5-min Rain = 0
KCO1 170636Z 23007KT 10/03 A3017 RMK A01 T00970034  RH  065%=      5-min Rain = 0
KCO1 170637Z 23007KT 10/03 A3017 RMK A01 T00970034  RH  065%=      5-min Rain = 0
KCO1 170638Z 23006KT 10/03 A3017 RMK A01 T00960034  RH  065%=      5-min Rain = 0
KCO1 170639Z 24006KT 10/03 A3017 RMK A01 T00960034  RH  065%=      5-min Rain = 0
KCO1 170640Z 23006KT 10/03 A3017 RMK A01 T00970034  RH  065%=      5-min Rain = 0
KCO1 170641Z 23006KT 10/03 A3017 RMK A01 T00960034  RH  065%=      5-min Rain = 0
KCO1 170642Z 23005KT 10/03 A3017 RMK A01 T00960034  RH  065%=      5-min Rain = 0
KCO1 170643Z 23006KT 10/03 A3017 RMK A01 T00950034  RH  065%=      5-min Rain = 0
KCO1 170644Z 23006KT 10/03 A3017 RMK A01 T00950033  RH  066%=      5-min Rain = 0
KCO1 170645Z 23005KT 09/03 A3017 RMK A01 T00940034  RH  066%=      5-min Rain = 0
KCO1 170646Z 23006KT 09/03 A3017 RMK A01 T00940034  RH  066%=      5-min Rain = 0
KCO1 170647Z 24005KT 09/03 A3017 RMK A01 T00920033  RH  066%=      5-min Rain = 0
KCO1 170648Z 24005KT 09/03 A3017 RMK A01 T00920033  RH  067%=      5-min Rain = 0
KCO1 170649Z 24005KT 09/03 A3017 RMK A01 T00910033  RH  067%=      5-min Rain = 0
KCO1 170650Z 24005KT 09/03 A3017 RMK A01 T00910033  RH  067%=      5-min Rain = 0
KCO1 170651Z 24005KT 09/03 A3017 RMK A01 T00900033  RH  067%=      5-min Rain = 0
KCO1 170652Z 25004KT 09/03 A3017 RMK A01 T00900033  RH  068%=      5-min Rain = 0
KCO1 170653Z 25005KT 09/03 A3017 RMK A01 T00900033  RH  067%=      5-min Rain = 0
KCO1 170654Z 25004KT 09/03 A3017 RMK A01 T00900033  RH  067%=      5-min Rain = 0
KCO1 170655Z 25005KT 09/03 A3017 RMK A01 T00900033  RH  067%=      5-min Rain = 0
KCO1 170656Z 26005KT 09/03 A3017 RMK A01 T00890032  RH  068%=      5-min Rain = 0
KCO1 170657Z 26006KT 09/03 A3017 RMK A01 T00890033  RH  068%=      5-min Rain = 0
KCO1 170658Z 26006KT 09/03 A3017 RMK A01 T00890032  RH  068%=      5-min Rain = 0
KCO1 170659Z 27006KT 09/03 A3017 RMK A01 T00890033  RH  068%=      5-min Rain = 0
KCO1 170700Z 27006KT 09/03 A3017 RMK A01 T00900033  RH  068%=      5-min Rain = 0
KCO1 170701Z 28005KT 09/03 A3017 RMK A01 T00890032  RH  068%=      5-min Rain = 0
KCO1 170702Z 28005KT 09/03 A3017 RMK A01 T00870031  RH  068%=      5-min Rain = 0
KCO1 170703Z 28006KT 08/03 A3017 RMK A01 T00840030  RH  069%=      5-min Rain = 0
KCO1 170704Z 27006KT 08/03 A3017 RMK A01 T00810030  RH  070%=      5-min Rain = 0
KCO1 170705Z 27007KT 08/03 A3017 RMK A01 T00800030  RH  071%=      5-min Rain = 0
KCO1 170706Z 27007KT 08/03 A3017 RMK A01 T00790030  RH  071%=      5-min Rain = 0
KCO1 170707Z 27005KT 08/03 A3017 RMK A01 T00780030  RH  072%=      5-min Rain = 0
KCO1 170708Z 28005KT 08/03 A3017 RMK A01 T00770030  RH  072%=      5-min Rain = 0
KCO1 170709Z 28005KT 08/03 A3017 RMK A01 T00770030  RH  072%=      5-min Rain = 0
KCO1 170710Z 28005KT 08/03 A3017 RMK A01 T00750030  RH  073%=      5-min Rain = 0
KCO1 170711Z 28005KT 08/03 A3017 RMK A01 T00750030  RH  073%=      5-min Rain = 0
KCO1 170712Z 28005KT 07/03 A3017 RMK A01 T00740030  RH  073%=      5-min Rain = 0
KCO1 170713Z 28004KT 07/03 A3017 RMK A01 T00730029  RH  073%=      5-min Rain = 0
KCO1 170714Z 28004KT 07/03 A3017 RMK A01 T00730029  RH  074%=      5-min Rain = 0
KCO1 170715Z 28004KT 07/03 A3017 RMK A01 T00720029  RH  074%=      5-min Rain = 0
KCO1 170716Z 27004KT 07/03 A3017 RMK A01 T00710029  RH  074%=      5-min Rain = 0
KCO1 170717Z 27004KT 07/03 A3017 RMK A01 T00700028  RH  075%=      5-min Rain = 0
KCO1 170718Z 26004KT 07/03 A3017 RMK A01 T00700028  RH  075%=      5-min Rain = 0
KCO1 170719Z 25005KT 07/03 A3018 RMK A01 T00690027  RH  075%=      5-min Rain = 0
KCO1 170720Z 24005KT 07/03 A3018 RMK A01 T00680028  RH  075%=      5-min Rain = 0
KCO1 170721Z 24004KT 07/03 A3018 RMK A01 T00690029  RH  076%=      5-min Rain = 0
KCO1 170722Z 24005KT 07/03 A3018 RMK A01 T00690029  RH  075%=      5-min Rain = 0
KCO1 170723Z 22005KT 07/03 A3018 RMK A01 T00700029  RH  075%=      5-min Rain = 0
KCO1 170724Z 21004KT 07/03 A3018 RMK A01 T00700030  RH  075%=      5-min Rain = 0
KCO1 170725Z 21006KT 07/03 A3018 RMK A01 T00710029  RH  075%=      5-min Rain = 0
KCO1 170726Z 21007KT 07/03 A3018 RMK A01 T00710029  RH  075%=      5-min Rain = 0
KCO1 170727Z 21007KT 07/03 A3018 RMK A01 T00720030  RH  075%=      5-min Rain = 0
KCO1 170728Z 22007KT 07/03 A3018 RMK A01 T00740032  RH  074%=      5-min Rain = 0
KCO1 170729Z 22007KT 08/03 A3018 RMK A01 T00760032  RH  074%=      5-min Rain = 0
KCO1 170730Z 21005KT 08/03 A3018 RMK A01 T00770031  RH  073%=      5-min Rain = 0
KCO1 170731Z 20005KT 08/03 A3018 RMK A01 T00770031  RH  072%=      5-min Rain = 0
KCO1 170732Z 21005KT 08/03 A3018 RMK A01 T00760029  RH  072%=      5-min Rain = 0
KCO1 170733Z 21005KT 07/03 A3018 RMK A01 T00740027  RH  072%=      5-min Rain = 0
KCO1 170734Z 21005KT 07/03 A3018 RMK A01 T00720027  RH  073%=      5-min Rain = 0
KCO1 170735Z 22006KT 07/03 A3018 RMK A01 T00710027  RH  074%=      5-min Rain = 0
KCO1 170736Z 22006KT 07/03 A3018 RMK A01 T00710028  RH  074%=      5-min Rain = 0
KCO1 170737Z 22006KT 07/03 A3017 RMK A01 T00700028  RH  074%=      5-min Rain = 0
KCO1 170738Z 22007KT 07/03 A3018 RMK A01 T00710028  RH  074%=      5-min Rain = 0
KCO1 170739Z 22007KT 07/03 A3018 RMK A01 T00710028  RH  074%=      5-min Rain = 0
KCO1 170740Z 23007KT 07/03 A3017 RMK A01 T00710028  RH  074%=      5-min Rain = 0
KCO1 170741Z 23007KT 07/03 A3017 RMK A01 T00710027  RH  074%=      5-min Rain = 0
KCO1 170742Z 23007KT 07/03 A3017 RMK A01 T00700027  RH  074%=      5-min Rain = 0
KCO1 170743Z 23007KT 07/03 A3017 RMK A01 T00700028  RH  074%=      5-min Rain = 0
KCO1 170744Z 23006KT 07/03 A3017 RMK A01 T00700027  RH  074%=      5-min Rain = 0
KCO1 170745Z 23006KT 07/03 A3017 RMK A01 T00700028  RH  074%=      5-min Rain = 0
KCO1 170746Z 22007KT 07/03 A3017 RMK A01 T00700028  RH  074%=      5-min Rain = 0
KCO1 170747Z 23007KT 07/03 A3017 RMK A01 T00700027  RH  074%=      5-min Rain = 0
KCO1 170748Z 23006KT 07/03 A3017 RMK A01 T00700028  RH  075%=      5-min Rain = 0
KCO1 170749Z 23005KT 07/03 A3017 RMK A01 T00700028  RH  075%=      5-min Rain = 0
KCO1 170750Z 23005KT 07/03 A3018 RMK A01 T00700027  RH  074%=      5-min Rain = 0
KCO1 170751Z 24005KT 07/03 A3018 RMK A01 T00700027  RH  074%=      5-min Rain = 0
KCO1 170752Z 24004KT 07/03 A3018 RMK A01 T00700027  RH  074%=      5-min Rain = 0
KCO1 170753Z 24003KT 07/03 A3018 RMK A01 T00700027  RH  074%=      5-min Rain = 0
KCO1 170754Z 25003KT 07/03 A3018 RMK A01 T00700027  RH  074%=      5-min Rain = 0
KCO1 170755Z 25003KT 07/03 A3018 RMK A01 T00700027  RH  074%=      5-min Rain = 0
KCO1 170756Z 25003KT 07/03 A3018 RMK A01 T00700027  RH  074%=      5-min Rain = 0
KCO1 170757Z 26003KT 07/03 A3018 RMK A01 T00700028  RH  074%=      5-min Rain = 0
KCO1 170758Z 26004KT 07/03 A3018 RMK A01 T00700028  RH  074%=      5-min Rain = 0
KCO1 170759Z 26004KT 07/03 A3018 RMK A01 T00700028  RH  074%=      5-min Rain = 0
KCO1 170800Z 26004KT 07/03 A3018 RMK A01 T00710028  RH  074%=      5-min Rain = 0
KCO1 170801Z 26004KT 07/03 A3018 RMK A01 T00710028  RH  074%=      5-min Rain = 0
KCO1 170802Z 25004KT 07/03 A3018 RMK A01 T00720028  RH  073%=      5-min Rain = 0
KCO1 170803Z 25005KT 07/03 A3018 RMK A01 T00730028  RH  073%=      5-min Rain = 0
KCO1 170804Z 24005KT 07/03 A3017 RMK A01 T00730027  RH  073%=      5-min Rain = 0
KCO1 170805Z 25005KT 07/03 A3017 RMK A01 T00730026  RH  072%=      5-min Rain = 0
KCO1 170806Z 24006KT 07/03 A3017 RMK A01 T00720027  RH  073%=      5-min Rain = 0
KCO1 170807Z 25007KT 07/03 A3017 RMK A01 T00730027  RH  073%=      5-min Rain = 0
KCO1 170808Z 24007KT 07/03 A3017 RMK A01 T00720027  RH  073%=      5-min Rain = 0
KCO1 170809Z 24006KT 07/03 A3018 RMK A01 T00720026  RH  073%=      5-min Rain = 0
KCO1 170810Z 24006KT 07/03 A3018 RMK A01 T00710026  RH  073%=      5-min Rain = 0
KCO1 170811Z 25006KT 07/03 A3018 RMK A01 T00710026  RH  073%=      5-min Rain = 0
KCO1 170812Z 25006KT 07/03 A3018 RMK A01 T00700025  RH  073%=      5-min Rain = 0
KCO1 170813Z 25007KT 07/03 A3018 RMK A01 T00700026  RH  074%=      5-min Rain = 0
KCO1 170814Z 25007KT 07/03 A3018 RMK A01 T00690026  RH  074%=      5-min Rain = 0
KCO1 170815Z 26007KT 07/03 A3018 RMK A01 T00690026  RH  074%=      5-min Rain = 0
KCO1 170816Z 26007KT 07/03 A3018 RMK A01 T00700027  RH  074%=      5-min Rain = 0
KCO1 170817Z 26006KT 07/03 A3018 RMK A01 T00720027  RH  073%=      5-min Rain = 0
KCO1 170818Z 26006KT 07/03 A3018 RMK A01 T00730027  RH  073%=      5-min Rain = 0
KCO1 170819Z 26007KT 07/03 A3018 RMK A01 T00740028  RH  073%=      5-min Rain = 0
KCO1 170820Z 26007KT 07/03 A3018 RMK A01 T00740027  RH  072%=      5-min Rain = 0
KCO1 170821Z 27008KT 07/03 A3018 RMK A01 T00730026  RH  072%=      5-min Rain = 0
KCO1 170822Z 26008KT 07/03 A3018 RMK A01 T00730026  RH  072%=      5-min Rain = 0
KCO1 170823Z 26008KT 07/03 A3018 RMK A01 T00720026  RH  073%=      5-min Rain = 0
KCO1 170824Z 27008KT 07/03 A3018 RMK A01 T00700025  RH  073%=      5-min Rain = 0
KCO1 170825Z 27008KT 07/03 A3018 RMK A01 T00700025  RH  073%=      5-min Rain = 0
KCO1 170826Z 27008KT 07/03 A3018 RMK A01 T00690025  RH  074%=      5-min Rain = 0
KCO1 170827Z 27008KT 07/03 A3018 RMK A01 T00690026  RH  074%=      5-min Rain = 0
KCO1 170828Z 27008KT 07/03 A3018 RMK A01 T00690025  RH  074%=      5-min Rain = 0
KCO1 170829Z 27008KT 07/03 A3018 RMK A01 T00680025  RH  074%=      5-min Rain = 0
KCO1 170830Z 27008KT 07/03 A3018 RMK A01 T00680025  RH  074%=      5-min Rain = 0
KCO1 170831Z 27008KT 07/03 A3018 RMK A01 T00680025  RH  074%=      5-min Rain = 0
KCO1 170832Z 27007KT 07/03 A3018 RMK A01 T00680026  RH  074%=      5-min Rain = 0
KCO1 170833Z 27007KT 07/03 A3018 RMK A01 T00680025  RH  074%=      5-min Rain = 0
KCO1 170834Z 27007KT 07/03 A3018 RMK A01 T00690025  RH  074%=      5-min Rain = 0
KCO1 170835Z 27007KT 07/03 A3018 RMK A01 T00700025  RH  073%=      5-min Rain = 0
KCO1 170836Z 27006KT 07/03 A3018 RMK A01 T00710025  RH  073%=      5-min Rain = 0
KCO1 170837Z 27005KT 07/03 A3018 RMK A01 T00710025  RH  072%=      5-min Rain = 0
KCO1 170838Z 27005KT 07/02 A3018 RMK A01 T00720024  RH  072%=      5-min Rain = 0
KCO1 170839Z 27005KT 07/02 A3018 RMK A01 T00710024  RH  072%=      5-min Rain = 0
KCO1 170840Z 27005KT 07/02 A3018 RMK A01 T00710024  RH  072%=      5-min Rain = 0
KCO1 170841Z 26005KT 07/02 A3018 RMK A01 T00710024  RH  072%=      5-min Rain = 0
KCO1 170842Z 26006KT 07/02 A3018 RMK A01 T00710024  RH  072%=      5-min Rain = 0
KCO1 170843Z 26006KT 07/02 A3018 RMK A01 T00710024  RH  072%=      5-min Rain = 0
KCO1 170844Z 26006KT 07/02 A3018 RMK A01 T00710024  RH  072%=      5-min Rain = 0
KCO1 170845Z 26005KT 07/02 A3018 RMK A01 T00730024  RH  071%=      5-min Rain = 0
KCO1 170846Z 26005KT 07/02 A3018 RMK A01 T00740024  RH  071%=      5-min Rain = 0
KCO1 170847Z 26004KT 07/02 A3018 RMK A01 T00740023  RH  070%=      5-min Rain = 0
KCO1 170848Z 25003KT 08/02 A3018 RMK A01 T00750023  RH  070%=      5-min Rain = 0
KCO1 170849Z 23003KT 08/02 A3019 RMK A01 T00750023  RH  070%=      5-min Rain = 0
KCO1 170850Z 21004KT 08/02 A3019 RMK A01 T00750023  RH  070%=      5-min Rain = 0
KCO1 170851Z 17005KT 07/02 A3019 RMK A01 T00740023  RH  070%=      5-min Rain = 0
KCO1 170852Z 16005KT 07/02 A3019 RMK A01 T00720021  RH  070%=      5-min Rain = 0
KCO1 170853Z 16005KT 07/02 A3019 RMK A01 T00690020  RH  071%=      5-min Rain = 0
KCO1 170854Z 17004KT 07/02 A3019 RMK A01 T00660020  RH  072%=      5-min Rain = 0
KCO1 170855Z 19003KT 06/02 A3019 RMK A01 T00640019  RH  073%=      5-min Rain = 0
KCO1 170856Z 21003KT 06/02 A3019 RMK A01 T00630021  RH  074%=      5-min Rain = 0
KCO1 170857Z 22003KT 06/02 A3019 RMK A01 T00630022  RH  075%=      5-min Rain = 0
KCO1 170858Z 23003KT 07/02 A3019 RMK A01 T00650022  RH  074%=      5-min Rain = 0
KCO1 170859Z 25003KT 07/02 A3019 RMK A01 T00660022  RH  073%=      5-min Rain = 0
KCO1 170900Z 26003KT 07/02 A3019 RMK A01 T00670022  RH  073%=      5-min Rain = 0
KCO1 170901Z 27001KT 07/02 A3019 RMK A01 T00670021  RH  072%=      5-min Rain = 0
KCO1 170902Z 04001KT 07/02 A3019 RMK A01 T00660019  RH  072%=      5-min Rain = 0
KCO1 170903Z 24002KT 06/02 A3019 RMK A01 T00640019  RH  073%=      5-min Rain = 0
KCO1 170904Z 24003KT 06/02 A3019 RMK A01 T00630020  RH  074%=      5-min Rain = 0
KCO1 170905Z 24004KT 06/02 A3019 RMK A01 T00620020  RH  074%=      5-min Rain = 0
KCO1 170906Z 24004KT 06/02 A3019 RMK A01 T00620020  RH  074%=      5-min Rain = 0
KCO1 170907Z 23003KT 06/02 A3019 RMK A01 T00620019  RH  074%=      5-min Rain = 0
KCO1 170908Z 22003KT 06/02 A3019 RMK A01 T00610018  RH  074%=      5-min Rain = 0
KCO1 170909Z 22004KT 06/02 A3019 RMK A01 T00600019  RH  075%=      5-min Rain = 0
KCO1 170910Z 22004KT 06/02 A3019 RMK A01 T00600019  RH  075%=      5-min Rain = 0
KCO1 170911Z 20004KT 06/02 A3019 RMK A01 T00600020  RH  075%=      5-min Rain = 0
KCO1 170912Z 20005KT 06/02 A3019 RMK A01 T00600019  RH  075%=      5-min Rain = 0
KCO1 170913Z 20005KT 06/02 A3019 RMK A01 T00600020  RH  075%=      5-min Rain = 0
KCO1 170914Z 20006KT 06/02 A3019 RMK A01 T00600020  RH  075%=      5-min Rain = 0
KCO1 170915Z 20005KT 06/02 A3019 RMK A01 T00600020  RH  076%=      5-min Rain = 0
KCO1 170916Z 20005KT 06/02 A3019 RMK A01 T00600021  RH  076%=      5-min Rain = 0
KCO1 170917Z 20005KT 06/02 A3019 RMK A01 T00600020  RH  076%=      5-min Rain = 0
KCO1 170918Z 19005KT 06/02 A3019 RMK A01 T00600019  RH  075%=      5-min Rain = 0
KCO1 170919Z 19005KT 06/02 A3019 RMK A01 T00580018  RH  076%=      5-min Rain = 0
KCO1 170920Z 19005KT 06/02 A3019 RMK A01 T00570019  RH  076%=      5-min Rain = 0
KCO1 170921Z 18005KT 06/02 A3019 RMK A01 T00570019  RH  077%=      5-min Rain = 0
KCO1 170922Z 17005KT 06/02 A3019 RMK A01 T00570021  RH  077%=      5-min Rain = 0
KCO1 170923Z 15004KT 06/02 A302 RMK A01 T00580022  RH  077%=      5-min Rain = 0
KCO1 170924Z 14003KT 06/02 A302 RMK A01 T00590021  RH  077%=      5-min Rain = 0
KCO1 170925Z 13003KT 06/02 A302 RMK A01 T00560018  RH  076%=      5-min Rain = 0
KCO1 170926Z 13003KT 05/02 A302 RMK A01 T00540017  RH  077%=      5-min Rain = 0
KCO1 170927Z 15003KT 05/02 A302 RMK A01 T00530018  RH  078%=      5-min Rain = 0
KCO1 170928Z 17003KT 05/02 A302 RMK A01 T00520018  RH  079%=      5-min Rain = 0
KCO1 170929Z 19003KT 05/02 A302 RMK A01 T00520020  RH  079%=      5-min Rain = 0
KCO1 170930Z 20003KT 05/02 A302 RMK A01 T00530020  RH  079%=      5-min Rain = 0
KCO1 170931Z 21003KT 05/02 A302 RMK A01 T00540020  RH  079%=      5-min Rain = 0
KCO1 170932Z 21004KT 05/02 A302 RMK A01 T00540020  RH  078%=      5-min Rain = 0
KCO1 170933Z 21004KT 05/02 A302 RMK A01 T00540020  RH  079%=      5-min Rain = 0
KCO1 170934Z 21004KT 05/02 A302 RMK A01 T00540020  RH  079%=      5-min Rain = 0
KCO1 170935Z 21004KT 06/02 A302 RMK A01 T00550020  RH  079%=      5-min Rain = 0
KCO1 170936Z 22005KT 06/02 A302 RMK A01 T00550021  RH  079%=      5-min Rain = 0
KCO1 170937Z 22004KT 05/02 A302 RMK A01 T00540021  RH  079%=      5-min Rain = 0
KCO1 170938Z 22005KT 05/02 A302 RMK A01 T00540021  RH  079%=      5-min Rain = 0
KCO1 170939Z 22005KT 05/02 A302 RMK A01 T00540021  RH  079%=      5-min Rain = 0
KCO1 170940Z 22005KT 05/02 A302 RMK A01 T00540021  RH  079%=      5-min Rain = 0
KCO1 170941Z 21005KT 05/02 A302 RMK A01 T00540021  RH  079%=      5-min Rain = 0
KCO1 170942Z 21004KT 05/02 A302 RMK A01 T00540021  RH  079%=      5-min Rain = 0
KCO1 170943Z 21003KT 05/02 A302 RMK A01 T00540021  RH  079%=      5-min Rain = 0
KCO1 170944Z 21003KT 05/02 A302 RMK A01 T00530020  RH  079%=      5-min Rain = 0
KCO1 170945Z 20004KT 05/02 A302 RMK A01 T00520020  RH  080%=      5-min Rain = 0
KCO1 170946Z 20004KT 05/02 A302 RMK A01 T00520020  RH  080%=      5-min Rain = 0
KCO1 170947Z 19004KT 05/02 A302 RMK A01 T00510020  RH  080%=      5-min Rain = 0
KCO1 170948Z 19005KT 05/02 A302 RMK A01 T00510020  RH  080%=      5-min Rain = 0
KCO1 170949Z 19005KT 05/02 A302 RMK A01 T00510020  RH  080%=      5-min Rain = 0
KCO1 170950Z 18006KT 05/02 A3021 RMK A01 T00500019  RH  080%=      5-min Rain = 0
KCO1 170951Z 18007KT 05/02 A3021 RMK A01 T00490019  RH  081%=      5-min Rain = 0
KCO1 170952Z 17006KT 05/02 A3021 RMK A01 T00490020  RH  082%=      5-min Rain = 0
KCO1 170953Z 18004KT 05/02 A3021 RMK A01 T00490020  RH  081%=      5-min Rain = 0
KCO1 170954Z 18003KT 05/02 A3021 RMK A01 T00490019  RH  081%=      5-min Rain = 0
KCO1 170955Z 17003KT 05/02 A3021 RMK A01 T00480017  RH  081%=      5-min Rain = 0
KCO1 170956Z 18003KT 05/02 A3021 RMK A01 T00470017  RH  081%=      5-min Rain = 0
KCO1 170957Z 17003KT 05/02 A3021 RMK A01 T00450016  RH  081%=      5-min Rain = 0
KCO1 170958Z 18002KT 05/02 A3021 RMK A01 T00450017  RH  082%=      5-min Rain = 0
KCO1 170959Z 19002KT 05/02 A3021 RMK A01 T00450018  RH  083%=      5-min Rain = 0
KCO1 171000Z 18002KT 05/02 A3021 RMK A01 T00450018  RH  083%=      5-min Rain = 0
KCO1 171001Z 17002KT 05/02 A3021 RMK A01 T00450019  RH  083%=      5-min Rain = 0
KCO1 171002Z 16002KT 04/02 A3021 RMK A01 T00440019  RH  083%=      5-min Rain = 0
KCO1 171003Z 17001KT 04/02 A3021 RMK A01 T00440019  RH  083%=      5-min Rain = 0
KCO1 171004Z 20002KT 04/02 A3021 RMK A01 T00440018  RH  084%=      5-min Rain = 0
KCO1 171005Z 18005KT 04/02 A3021 RMK A01 T00430019  RH  084%=      5-min Rain = 0
KCO1 171006Z 18006KT 04/02 A3021 RMK A01 T00440019  RH  084%=      5-min Rain = 0
KCO1 171007Z 19006KT 05/02 A3021 RMK A01 T00450020  RH  084%=      5-min Rain = 0
KCO1 171008Z 19006KT 05/02 A3021 RMK A01 T00460020  RH  083%=      5-min Rain = 0
KCO1 171009Z 19006KT 05/02 A302 RMK A01 T00450019  RH  083%=      5-min Rain = 0
KCO1 171010Z 19007KT 05/02 A302 RMK A01 T00480023  RH  084%=      5-min Rain = 0
KCO1 171011Z 19007KT 05/03 A302 RMK A01 T00520027  RH  084%=      5-min Rain = 0
KCO1 171012Z 19007KT 06/03 A302 RMK A01 T00550027  RH  082%=      5-min Rain = 0
KCO1 171013Z 19007KT 06/03 A302 RMK A01 T00560025  RH  080%=      5-min Rain = 0
KCO1 171014Z 19007KT 06/02 A302 RMK A01 T00560023  RH  080%=      5-min Rain = 0
KCO1 171015Z 19006KT 06/02 A302 RMK A01 T00550022  RH  079%=      5-min Rain = 0
KCO1 171016Z 19006KT 05/02 A302 RMK A01 T00540021  RH  079%=      5-min Rain = 0
KCO1 171017Z 19006KT 05/02 A302 RMK A01 T00530020  RH  079%=      5-min Rain = 0
KCO1 171018Z 19005KT 05/02 A302 RMK A01 T00510019  RH  080%=      5-min Rain = 0
KCO1 171019Z 19005KT 05/02 A302 RMK A01 T00510020  RH  080%=      5-min Rain = 0
KCO1 171020Z 19005KT 05/02 A302 RMK A01 T00500020  RH  081%=      5-min Rain = 0
KCO1 171021Z 19005KT 05/02 A302 RMK A01 T00510021  RH  081%=      5-min Rain = 0
KCO1 171022Z 20005KT 05/02 A302 RMK A01 T00510022  RH  081%=      5-min Rain = 0
KCO1 171023Z 20005KT 05/02 A302 RMK A01 T00520022  RH  081%=      5-min Rain = 0
KCO1 171024Z 20005KT 05/02 A302 RMK A01 T00510022  RH  081%=      5-min Rain = 0
KCO1 171025Z 20005KT 05/02 A302 RMK A01 T00510022  RH  081%=      5-min Rain = 0
KCO1 171026Z 20005KT 05/02 A302 RMK A01 T00520022  RH  081%=      5-min Rain = 0
KCO1 171027Z 20005KT 05/02 A302 RMK A01 T00530023  RH  081%=      5-min Rain = 0
KCO1 171028Z 21005KT 05/02 A302 RMK A01 T00520022  RH  081%=      5-min Rain = 0
KCO1 171029Z 21005KT 05/02 A302 RMK A01 T00520023  RH  081%=      5-min Rain = 0
KCO1 171030Z 21005KT 05/02 A302 RMK A01 T00520022  RH  081%=      5-min Rain = 0
KCO1 171031Z 22005KT 05/02 A302 RMK A01 T00520022  RH  081%=      5-min Rain = 0
KCO1 171032Z 21005KT 05/02 A302 RMK A01 T00510021  RH  081%=      5-min Rain = 0
KCO1 171033Z 21005KT 05/02 A302 RMK A01 T00510020  RH  081%=      5-min Rain = 0
KCO1 171034Z 21005KT 05/02 A302 RMK A01 T00500020  RH  081%=      5-min Rain = 0
KCO1 171035Z 21005KT 05/02 A302 RMK A01 T00490019  RH  081%=      5-min Rain = 0
KCO1 171036Z 20005KT 05/02 A302 RMK A01 T00490019  RH  081%=      5-min Rain = 0
KCO1 171037Z 20005KT 05/02 A302 RMK A01 T00480019  RH  081%=      5-min Rain = 0
KCO1 171038Z 20005KT 05/02 A302 RMK A01 T00480019  RH  082%=      5-min Rain = 0
KCO1 171039Z 21005KT 05/02 A302 RMK A01 T00480019  RH  081%=      5-min Rain = 0
KCO1 171040Z 21006KT 05/02 A302 RMK A01 T00470017  RH  081%=      5-min Rain = 0
KCO1 171041Z 21005KT 05/02 A302 RMK A01 T00460016  RH  081%=      5-min Rain = 0
KCO1 171042Z 21005KT 05/02 A302 RMK A01 T00450016  RH  081%=      5-min Rain = 0
KCO1 171043Z 21006KT 05/02 A302 RMK A01 T00450016  RH  081%=      5-min Rain = 0
KCO1 171044Z 21006KT 05/02 A302 RMK A01 T00450016  RH  082%=      5-min Rain = 0
KCO1 171045Z 21006KT 05/02 A302 RMK A01 T00460017  RH  082%=      5-min Rain = 0
KCO1 171046Z 22006KT 05/02 A302 RMK A01 T00460017  RH  081%=      5-min Rain = 0
KCO1 171047Z 22005KT 05/02 A302 RMK A01 T00460017  RH  081%=      5-min Rain = 0
KCO1 171048Z 22005KT 05/02 A302 RMK A01 T00450016  RH  081%=      5-min Rain = 0
KCO1 171049Z 22005KT 05/02 A302 RMK A01 T00450017  RH  082%=      5-min Rain = 0
KCO1 171050Z 24002KT 05/02 A302 RMK A01 T00460017  RH  081%=      5-min Rain = 0
KCO1 171051Z 32002KT 05/02 A302 RMK A01 T00450016  RH  081%=      5-min Rain = 0
KCO1 171052Z 34003KT 04/01 A302 RMK A01 T00430013  RH  081%=      5-min Rain = 0
KCO1 171053Z 26002KT 04/01 A302 RMK A01 T00400011  RH  081%=      5-min Rain = 0
KCO1 171054Z 24003KT 04/01 A302 RMK A01 T00390012  RH  082%=      5-min Rain = 0
KCO1 171055Z 22003KT 04/01 A302 RMK A01 T00380012  RH  083%=      5-min Rain = 0
KCO1 171056Z 24002KT 04/01 A302 RMK A01 T00380013  RH  084%=      5-min Rain = 0
KCO1 171057Z 27002KT 04/01 A302 RMK A01 T00370013  RH  084%=      5-min Rain = 0
KCO1 171058Z 26003KT 04/01 A302 RMK A01 T00370013  RH  084%=      5-min Rain = 0
KCO1 171059Z 29003KT 04/01 A302 RMK A01 T00370014  RH  085%=      5-min Rain = 0
KCO1 171100Z 29003KT 04/01 A302 RMK A01 T00370014  RH  085%=      5-min Rain = 0
KCO1 171101Z 28003KT 04/02 A302 RMK A01 T00380015  RH  085%=      5-min Rain = 0
KCO1 171102Z 29003KT 04/01 A302 RMK A01 T00380014  RH  085%=      5-min Rain = 0
KCO1 171103Z 31002KT 04/02 A302 RMK A01 T00380015  RH  085%=      5-min Rain = 0
KCO1 171104Z 32003KT 04/01 A302 RMK A01 T00380014  RH  085%=      5-min Rain = 0
KCO1 171105Z 33004KT 04/01 A302 RMK A01 T00370013  RH  084%=      5-min Rain = 0
KCO1 171106Z 32003KT 04/01 A302 RMK A01 T00350011  RH  084%=      5-min Rain = 0
KCO1 171107Z 31003KT 03/01 A302 RMK A01 T00340010  RH  084%=      5-min Rain = 0
KCO1 171108Z 32003KT 03/01 A302 RMK A01 T00340011  RH  085%=      5-min Rain = 0
KCO1 171109Z 31003KT 03/01 A302 RMK A01 T00340012  RH  085%=      5-min Rain = 0
KCO1 171110Z 29003KT 03/01 A302 RMK A01 T00340012  RH  085%=      5-min Rain = 0
KCO1 171111Z 30003KT 03/01 A302 RMK A01 T00340012  RH  085%=      5-min Rain = 0
KCO1 171112Z 30003KT 04/01 A302 RMK A01 T00350012  RH  085%=      5-min Rain = 0
KCO1 171113Z 29004KT 04/01 A302 RMK A01 T00350013  RH  085%=      5-min Rain = 0
KCO1 171114Z 28004KT 04/01 A302 RMK A01 T00350012  RH  085%=      5-min Rain = 0
KCO1 171115Z 27005KT 04/01 A302 RMK A01 T00350011  RH  085%=      5-min Rain = 0
KCO1 171116Z 27005KT 03/01 A302 RMK A01 T00340010  RH  084%=      5-min Rain = 0
KCO1 171117Z 27005KT 03/01 A302 RMK A01 T00330009  RH  084%=      5-min Rain = 0
KCO1 171118Z 27006KT 03/01 A302 RMK A01 T00320008  RH  084%=      5-min Rain = 0
KCO1 171119Z 27006KT 03/01 A302 RMK A01 T00320009  RH  085%=      5-min Rain = 0
KCO1 171120Z 27005KT 03/01 A302 RMK A01 T00320009  RH  085%=      5-min Rain = 0
KCO1 171121Z 26005KT 03/01 A302 RMK A01 T00310010  RH  086%=      5-min Rain = 0
KCO1 171122Z 26006KT 03/01 A302 RMK A01 T00310010  RH  086%=      5-min Rain = 0
KCO1 171123Z 26005KT 03/01 A302 RMK A01 T00310010  RH  086%=      5-min Rain = 0
KCO1 171124Z 26005KT 03/01 A302 RMK A01 T00310010  RH  086%=      5-min Rain = 0
KCO1 171125Z 26005KT 03/01 A302 RMK A01 T00310010  RH  086%=      5-min Rain = 0
KCO1 171126Z 26005KT 03/01 A302 RMK A01 T00310010  RH  086%=      5-min Rain = 0
KCO1 171127Z 26005KT 03/01 A302 RMK A01 T00320011  RH  086%=      5-min Rain = 0
KCO1 171128Z 26005KT 03/01 A302 RMK A01 T00320011  RH  086%=      5-min Rain = 0
KCO1 171129Z 25005KT 03/01 A302 RMK A01 T00330012  RH  086%=      5-min Rain = 0
KCO1 171130Z 25005KT 03/01 A302 RMK A01 T00340012  RH  086%=      5-min Rain = 0
KCO1 171131Z 25005KT 03/01 A302 RMK A01 T00340013  RH  086%=      5-min Rain = 0
KCO1 171132Z 25005KT 04/01 A302 RMK A01 T00360014  RH  086%=      5-min Rain = 0
KCO1 171133Z 26005KT 04/02 A302 RMK A01 T00370015  RH  086%=      5-min Rain = 0
KCO1 171134Z 26005KT 04/02 A302 RMK A01 T00380016  RH  085%=      5-min Rain = 0
KCO1 171135Z 26004KT 04/02 A302 RMK A01 T00390015  RH  085%=      5-min Rain = 0
KCO1 171136Z 26004KT 04/02 A302 RMK A01 T00400015  RH  084%=      5-min Rain = 0
KCO1 171137Z 27004KT 04/02 A302 RMK A01 T00400015  RH  084%=      5-min Rain = 0
KCO1 171138Z 26004KT 04/02 A302 RMK A01 T00400015  RH  084%=      5-min Rain = 0
KCO1 171139Z 27004KT 04/01 A302 RMK A01 T00400014  RH  084%=      5-min Rain = 0
KCO1 171140Z 27004KT 04/01 A302 RMK A01 T00400014  RH  083%=      5-min Rain = 0
KCO1 171141Z 26003KT 04/02 A302 RMK A01 T00410015  RH  083%=      5-min Rain = 0
KCO1 171142Z 26003KT 04/01 A302 RMK A01 T00410014  RH  083%=      5-min Rain = 0
KCO1 171143Z 26002KT 04/01 A302 RMK A01 T00400014  RH  083%=      5-min Rain = 0
KCO1 171144Z 24002KT 04/01 A302 RMK A01 T00400013  RH  083%=      5-min Rain = 0
KCO1 171145Z 23002KT 04/01 A302 RMK A01 T00390013  RH  083%=      5-min Rain = 0
KCO1 171146Z 21002KT 04/01 A302 RMK A01 T00390012  RH  083%=      5-min Rain = 0
KCO1 171147Z 20002KT 04/01 A302 RMK A01 T00380012  RH  083%=      5-min Rain = 0
KCO1 171148Z 19002KT 04/01 A302 RMK A01 T00370011  RH  083%=      5-min Rain = 0
KCO1 171149Z 18001KT 04/01 A302 RMK A01 T00360010  RH  083%=      5-min Rain = 0
KCO1 171150Z 20001KT 03/01 A302 RMK A01 T00340007  RH  083%=      5-min Rain = 0
KCO1 171151Z 23002KT 03/01 A302 RMK A01 T00320006  RH  083%=      5-min Rain = 0
KCO1 171152Z 24003KT 03/01 A302 RMK A01 T00310006  RH  084%=      5-min Rain = 0
KCO1 171153Z 25003KT 03/01 A302 RMK A01 T00300006  RH  084%=      5-min Rain = 0
KCO1 171154Z 23004KT 03/01 A302 RMK A01 T00300006  RH  085%=      5-min Rain = 0
KCO1 171155Z 22004KT 03/01 A302 RMK A01 T00290006  RH  085%=      5-min Rain = 0
KCO1 171156Z 21004KT 03/01 A302 RMK A01 T00290007  RH  085%=      5-min Rain = 0
KCO1 171157Z 21005KT 03/01 A302 RMK A01 T00290007  RH  086%=      5-min Rain = 0
KCO1 171158Z 22006KT 03/01 A302 RMK A01 T00300009  RH  086%=      5-min Rain = 0
KCO1 171159Z 22006KT 03/01 A302 RMK A01 T00310010  RH  086%=      5-min Rain = 0
KCO1 171200Z 22005KT 03/01 A302 RMK A01 T00330011  RH  086%=      5-min Rain = 0
KCO1 171201Z 22005KT 03/01 A302 RMK A01 T00340012  RH  086%=      5-min Rain = 0
KCO1 171202Z 23004KT 04/01 A302 RMK A01 T00350012  RH  085%=      5-min Rain = 0
KCO1 171203Z 24004KT 04/01 A302 RMK A01 T00350012  RH  085%=      5-min Rain = 0
KCO1 171204Z 24004KT 04/01 A302 RMK A01 T00350011  RH  085%=      5-min Rain = 0
KCO1 171205Z 24004KT 04/01 A302 RMK A01 T00350011  RH  084%=      5-min Rain = 0
KCO1 171206Z 24004KT 04/01 A302 RMK A01 T00350011  RH  084%=      5-min Rain = 0
KCO1 171207Z 25004KT 04/01 A302 RMK A01 T00350011  RH  084%=      5-min Rain = 0
KCO1 171208Z 25004KT 04/01 A302 RMK A01 T00350011  RH  084%=      5-min Rain = 0
KCO1 171209Z 26004KT 04/01 A302 RMK A01 T00350011  RH  084%=      5-min Rain = 0
KCO1 171210Z 26004KT 04/01 A302 RMK A01 T00350010  RH  084%=      5-min Rain = 0
KCO1 171211Z 26003KT 04/01 A302 RMK A01 T00350010  RH  084%=      5-min Rain = 0
KCO1 171212Z 26003KT 04/01 A302 RMK A01 T00350011  RH  084%=      5-min Rain = 0
KCO1 171213Z 27003KT 03/01 A302 RMK A01 T00340011  RH  084%=      5-min Rain = 0
KCO1 171214Z 26003KT 04/01 A302 RMK A01 T00350011  RH  085%=      5-min Rain = 0
KCO1 171215Z 25004KT 04/01 A302 RMK A01 T00350012  RH  085%=      5-min Rain = 0
KCO1 171216Z 24004KT 04/01 A302 RMK A01 T00360013  RH  084%=      5-min Rain = 0
KCO1 171217Z 24004KT 04/01 A302 RMK A01 T00370013  RH  084%=      5-min Rain = 0
KCO1 171218Z 24004KT 04/01 A302 RMK A01 T00380013  RH  084%=      5-min Rain = 0
KCO1 171219Z 24005KT 04/01 A302 RMK A01 T00390013  RH  083%=      5-min Rain = 0
KCO1 171220Z 24004KT 04/01 A302 RMK A01 T00390012  RH  083%=      5-min Rain = 0
KCO1 171221Z 24004KT 04/01 A302 RMK A01 T00390012  RH  083%=      5-min Rain = 0
KCO1 171222Z 24005KT 04/01 A302 RMK A01 T00390012  RH  083%=      5-min Rain = 0
KCO1 171223Z 24005KT 04/01 A302 RMK A01 T00390012  RH  082%=      5-min Rain = 0
KCO1 171224Z 24006KT 04/01 A302 RMK A01 T00390011  RH  082%=      5-min Rain = 0
KCO1 171225Z 24006KT 04/01 A302 RMK A01 T00380010  RH  082%=      5-min Rain = 0
KCO1 171226Z 24006KT 04/01 A302 RMK A01 T00370010  RH  083%=      5-min Rain = 0
KCO1 171227Z 24006KT 04/01 A302 RMK A01 T00370010  RH  083%=      5-min Rain = 0
KCO1 171228Z 25006KT 04/01 A302 RMK A01 T00370010  RH  083%=      5-min Rain = 0
KCO1 171229Z 25006KT 04/01 A302 RMK A01 T00380011  RH  083%=      5-min Rain = 0
KCO1 171230Z 25006KT 04/01 A302 RMK A01 T00380011  RH  083%=      5-min Rain = 0
KCO1 171231Z 25006KT 04/01 A302 RMK A01 T00380011  RH  082%=      5-min Rain = 0
KCO1 171232Z 25006KT 04/01 A302 RMK A01 T00390011  RH  082%=      5-min Rain = 0
KCO1 171233Z 25005KT 04/01 A302 RMK A01 T00390012  RH  082%=      5-min Rain = 0
KCO1 171234Z 26005KT 04/01 A302 RMK A01 T00400012  RH  082%=      5-min Rain = 0
KCO1 171235Z 26004KT 04/01 A302 RMK A01 T00410013  RH  082%=      5-min Rain = 0
KCO1 171236Z 25004KT 04/01 A302 RMK A01 T00410012  RH  081%=      5-min Rain = 0
KCO1 171237Z 25005KT 04/01 A302 RMK A01 T00410011  RH  081%=      5-min Rain = 0
KCO1 171238Z 24006KT 04/01 A302 RMK A01 T00420012  RH  081%=      5-min Rain = 0
KCO1 171239Z 23006KT 04/01 A302 RMK A01 T00430013  RH  081%=      5-min Rain = 0
KCO1 171240Z 23006KT 04/01 A3021 RMK A01 T00430012  RH  081%=      5-min Rain = 0
KCO1 171241Z 23006KT 04/01 A3021 RMK A01 T00430013  RH  081%=      5-min Rain = 0
KCO1 171242Z 23006KT 04/01 A3021 RMK A01 T00430012  RH  081%=      5-min Rain = 0
KCO1 171243Z 23007KT 04/01 A3021 RMK A01 T00430012  RH  080%=      5-min Rain = 0
KCO1 171244Z 24006KT 04/01 A3021 RMK A01 T00430012  RH  080%=      5-min Rain = 0
KCO1 171245Z 24006KT 04/01 A3021 RMK A01 T00420011  RH  080%=      5-min Rain = 0
KCO1 171246Z 24006KT 04/01 A3021 RMK A01 T00410011  RH  080%=      5-min Rain = 0
KCO1 171247Z 24007KT 04/01 A3021 RMK A01 T00410011  RH  081%=      5-min Rain = 0
KCO1 171248Z 24006KT 04/01 A3021 RMK A01 T00410011  RH  081%=      5-min Rain = 0
KCO1 171249Z 24006KT 04/01 A3021 RMK A01 T00410010  RH  080%=      5-min Rain = 0
KCO1 171250Z 25006KT 04/01 A3021 RMK A01 T00410010  RH  081%=      5-min Rain = 0
KCO1 171251Z 25006KT 04/01 A3021 RMK A01 T00410011  RH  081%=      5-min Rain = 0
KCO1 171252Z 25006KT 04/01 A3021 RMK A01 T00410011  RH  081%=      5-min Rain = 0
KCO1 171253Z 24006KT 04/01 A3021 RMK A01 T00410010  RH  081%=      5-min Rain = 0
KCO1 171254Z 24006KT 04/01 A3021 RMK A01 T00410011  RH  081%=      5-min Rain = 0
KCO1 171255Z 24006KT 04/01 A3021 RMK A01 T00400010  RH  081%=      5-min Rain = 0
KCO1 171256Z 24006KT 04/01 A3021 RMK A01 T00400011  RH  081%=      5-min Rain = 0
KCO1 171257Z 23006KT 04/01 A3021 RMK A01 T00400010  RH  081%=      5-min Rain = 0
KCO1 171258Z 23006KT 04/01 A3021 RMK A01 T00390010  RH  081%=      5-min Rain = 0
KCO1 171259Z 23006KT 04/01 A3021 RMK A01 T00390010  RH  081%=      5-min Rain = 0
KCO1 171300Z 23006KT 04/01 A3021 RMK A01 T00380009  RH  082%=      5-min Rain = 0
KCO1 171301Z 23006KT 04/01 A3021 RMK A01 T00370009  RH  082%=      5-min Rain = 0
KCO1 171302Z 23006KT 04/01 A3021 RMK A01 T00360008  RH  082%=      5-min Rain = 0
KCO1 171303Z 23006KT 04/01 A3021 RMK A01 T00360008  RH  082%=      5-min Rain = 0
KCO1 171304Z 23006KT 04/01 A3021 RMK A01 T00360009  RH  083%=      5-min Rain = 0
KCO1 171305Z 23006KT 04/01 A3021 RMK A01 T00350009  RH  083%=      5-min Rain = 0
KCO1 171306Z 23006KT 04/01 A3021 RMK A01 T00360009  RH  083%=      5-min Rain = 0
KCO1 171307Z 23006KT 04/01 A3021 RMK A01 T00350009  RH  083%=      5-min Rain = 0
KCO1 171308Z 24006KT 04/01 A3021 RMK A01 T00360010  RH  083%=      5-min Rain = 0
KCO1 171309Z 23006KT 04/01 A3021 RMK A01 T00360010  RH  083%=      5-min Rain = 0
KCO1 171310Z 23006KT 04/01 A3021 RMK A01 T00370010  RH  083%=      5-min Rain = 0
KCO1 171311Z 22007KT 04/01 A3021 RMK A01 T00370010  RH  083%=      5-min Rain = 0
KCO1 171312Z 22007KT 04/01 A3021 RMK A01 T00380011  RH  082%=      5-min Rain = 0
KCO1 171313Z 22007KT 04/01 A3021 RMK A01 T00380011  RH  082%=      5-min Rain = 0
KCO1 171314Z 22007KT 04/01 A3021 RMK A01 T00390011  RH  082%=      5-min Rain = 0
KCO1 171315Z 22008KT 04/01 A3021 RMK A01 T00390010  RH  082%=      5-min Rain = 0
KCO1 171316Z 22008KT 04/01 A3021 RMK A01 T00380010  RH  082%=      5-min Rain = 0
KCO1 171317Z 22008KT 04/01 A3021 RMK A01 T00370009  RH  082%=      5-min Rain = 0
KCO1 171318Z 22007KT 04/01 A3021 RMK A01 T00370009  RH  082%=      5-min Rain = 0
KCO1 171319Z 22008KT 04/01 A3021 RMK A01 T00360009  RH  082%=      5-min Rain = 0
KCO1 171320Z 22007KT 04/01 A3022 RMK A01 T00360009  RH  083%=      5-min Rain = 0
KCO1 171321Z 22008KT 04/01 A3022 RMK A01 T00360009  RH  083%=      5-min Rain = 0
KCO1 171322Z 22007KT 04/01 A3022 RMK A01 T00360009  RH  083%=      5-min Rain = 0
KCO1 171323Z 22007KT 04/01 A3022 RMK A01 T00360009  RH  083%=      5-min Rain = 0
KCO1 171324Z 22007KT 04/01 A3022 RMK A01 T00350009  RH  083%=      5-min Rain = 0
KCO1 171325Z 22007KT 04/01 A3022 RMK A01 T00350009  RH  083%=      5-min Rain = 0
KCO1 171326Z 22007KT 04/01 A3022 RMK A01 T00350009  RH  083%=      5-min Rain = 0
KCO1 171327Z 22007KT 04/01 A3022 RMK A01 T00350008  RH  083%=      5-min Rain = 0
KCO1 171328Z 22007KT 04/01 A3022 RMK A01 T00350008  RH  083%=      5-min Rain = 0
KCO1 171329Z 22007KT 04/01 A3022 RMK A01 T00350009  RH  083%=      5-min Rain = 0
KCO1 171330Z 22007KT 04/01 A3022 RMK A01 T00350009  RH  083%=      5-min Rain = 0
KCO1 171331Z 22007KT 04/01 A3022 RMK A01 T00350008  RH  083%=      5-min Rain = 0
KCO1 171332Z 22007KT 04/01 A3022 RMK A01 T00350008  RH  082%=      5-min Rain = 0
KCO1 171333Z 22007KT 04/01 A3022 RMK A01 T00350008  RH  082%=      5-min Rain = 0
KCO1 171334Z 22007KT 04/01 A3022 RMK A01 T00350008  RH  083%=      5-min Rain = 0
KCO1 171335Z 22006KT 04/01 A3022 RMK A01 T00360009  RH  083%=      5-min Rain = 0
KCO1 171336Z 22006KT 04/01 A3022 RMK A01 T00360009  RH  083%=      5-min Rain = 0
KCO1 171337Z 22006KT 04/01 A3022 RMK A01 T00350008  RH  082%=      5-min Rain = 0
KCO1 171338Z 22006KT 04/01 A3022 RMK A01 T00360009  RH  082%=      5-min Rain = 0
KCO1 171339Z 22006KT 04/01 A3023 RMK A01 T00370009  RH  082%=      5-min Rain = 0
KCO1 171340Z 22005KT 04/01 A3023 RMK A01 T00360009  RH  082%=      5-min Rain = 0
KCO1 171341Z 22006KT 04/01 A3023 RMK A01 T00370009  RH  082%=      5-min Rain = 0
KCO1 171342Z 22006KT 04/01 A3023 RMK A01 T00370009  RH  082%=      5-min Rain = 0
KCO1 171343Z 22006KT 04/01 A3023 RMK A01 T00370008  RH  082%=      5-min Rain = 0
KCO1 171344Z 22006KT 04/01 A3023 RMK A01 T00370008  RH  081%=      5-min Rain = 0
KCO1 171345Z 22007KT 04/01 A3023 RMK A01 T00370008  RH  081%=      5-min Rain = 0
KCO1 171346Z 22007KT 04/01 A3023 RMK A01 T00370008  RH  081%=      5-min Rain = 0
KCO1 171347Z 22006KT 04/01 A3023 RMK A01 T00360007  RH  081%=      5-min Rain = 0
KCO1 171348Z 22006KT 04/01 A3023 RMK A01 T00360007  RH  082%=      5-min Rain = 0
KCO1 171349Z 22007KT 04/01 A3023 RMK A01 T00360008  RH  082%=      5-min Rain = 0
KCO1 171350Z 22007KT 04/01 A3023 RMK A01 T00350008  RH  082%=      5-min Rain = 0
KCO1 171351Z 22007KT 04/01 A3023 RMK A01 T00360008  RH  082%=      5-min Rain = 0
KCO1 171352Z 23007KT 04/01 A3023 RMK A01 T00360008  RH  082%=      5-min Rain = 0
KCO1 171353Z 22007KT 04/01 A3023 RMK A01 T00350008  RH  082%=      5-min Rain = 0
KCO1 171354Z 22007KT 04/01 A3023 RMK A01 T00360008  RH  082%=      5-min Rain = 0
KCO1 171355Z 22007KT 04/01 A3023 RMK A01 T00360007  RH  082%=      5-min Rain = 0
KCO1 171356Z 22007KT 04/01 A3023 RMK A01 T00360008  RH  082%=      5-min Rain = 0
KCO1 171357Z 22007KT 04/01 A3023 RMK A01 T00360008  RH  082%=      5-min Rain = 0
KCO1 171358Z 22007KT 04/01 A3023 RMK A01 T00350008  RH  082%=      5-min Rain = 0
KCO1 171359Z 22007KT 04/01 A3023 RMK A01 T00350008  RH  082%=      5-min Rain = 0
KCO1 171400Z 22007KT 04/01 A3023 RMK A01 T00360008  RH  082%=      5-min Rain = 0
KCO1 171401Z 22007KT 04/01 A3023 RMK A01 T00360008  RH  082%=      5-min Rain = 0
KCO1 171402Z 22008KT 04/01 A3023 RMK A01 T00360008  RH  082%=      5-min Rain = 0
KCO1 171403Z 22007KT 04/01 A3023 RMK A01 T00370008  RH  082%=      5-min Rain = 0
KCO1 171404Z 22007KT 04/01 A3023 RMK A01 T00370009  RH  082%=      5-min Rain = 0
KCO1 171405Z 22008KT 04/01 A3023 RMK A01 T00380009  RH  082%=      5-min Rain = 0
KCO1 171406Z 22008KT 04/01 A3023 RMK A01 T00380009  RH  081%=      5-min Rain = 0
KCO1 171407Z 22007KT 04/01 A3023 RMK A01 T00390010  RH  081%=      5-min Rain = 0
KCO1 171408Z 22007KT 04/01 A3023 RMK A01 T00400010  RH  081%=      5-min Rain = 0
KCO1 171409Z 23007KT 04/01 A3023 RMK A01 T00410010  RH  081%=      5-min Rain = 0
KCO1 171410Z 23006KT 04/01 A3023 RMK A01 T00410011  RH  081%=      5-min Rain = 0
KCO1 171411Z 23005KT 04/01 A3023 RMK A01 T00420011  RH  081%=      5-min Rain = 0
KCO1 171412Z 23005KT 04/01 A3023 RMK A01 T00430012  RH  080%=      5-min Rain = 0
KCO1 171413Z 23005KT 04/01 A3023 RMK A01 T00440013  RH  080%=      5-min Rain = 0
KCO1 171414Z 23005KT 05/01 A3023 RMK A01 T00450013  RH  080%=      5-min Rain = 0
KCO1 171415Z 23005KT 05/01 A3023 RMK A01 T00450014  RH  080%=      5-min Rain = 0
KCO1 171416Z 23005KT 05/01 A3023 RMK A01 T00470014  RH  080%=      5-min Rain = 0
KCO1 171417Z 23005KT 05/02 A3023 RMK A01 T00480015  RH  079%=      5-min Rain = 0
KCO1 171418Z 23004KT 05/02 A3023 RMK A01 T00490015  RH  079%=      5-min Rain = 0
KCO1 171419Z 23005KT 05/02 A3024 RMK A01 T00490016  RH  079%=      5-min Rain = 0
KCO1 171420Z 23005KT 05/02 A3024 RMK A01 T00500016  RH  078%=      5-min Rain = 0
KCO1 171421Z 23005KT 05/02 A3024 RMK A01 T00510016  RH  078%=      5-min Rain = 0
KCO1 171422Z 23004KT 05/02 A3024 RMK A01 T00520017  RH  078%=      5-min Rain = 0
KCO1 171423Z 24005KT 05/02 A3024 RMK A01 T00530017  RH  077%=      5-min Rain = 0
KCO1 171424Z 24005KT 06/02 A3024 RMK A01 T00550018  RH  077%=      5-min Rain = 0
KCO1 171425Z 23005KT 06/02 A3024 RMK A01 T00560018  RH  076%=      5-min Rain = 0
KCO1 171426Z 23005KT 06/02 A3024 RMK A01 T00560017  RH  076%=      5-min Rain = 0
KCO1 171427Z 23006KT 06/02 A3024 RMK A01 T00560017  RH  076%=      5-min Rain = 0
KCO1 171428Z 23006KT 06/02 A3024 RMK A01 T00560017  RH  076%=      5-min Rain = 0
KCO1 171429Z 23006KT 06/02 A3024 RMK A01 T00570018  RH  076%=      5-min Rain = 0
KCO1 171430Z 23006KT 06/02 A3024 RMK A01 T00570018  RH  076%=      5-min Rain = 0
KCO1 171431Z 22006KT 06/02 A3024 RMK A01 T00580018  RH  075%=      5-min Rain = 0
KCO1 171432Z 22006KT 06/02 A3024 RMK A01 T00590018  RH  075%=      5-min Rain = 0
KCO1 171433Z 22006KT 06/02 A3024 RMK A01 T00580018  RH  075%=      5-min Rain = 0
KCO1 171434Z 23006KT 06/02 A3024 RMK A01 T00580018  RH  075%=      5-min Rain = 0
KCO1 171435Z 22006KT 06/02 A3024 RMK A01 T00580018  RH  075%=      5-min Rain = 0
KCO1 171436Z 22006KT 06/02 A3024 RMK A01 T00590018  RH  075%=      5-min Rain = 0
KCO1 171437Z 22006KT 06/02 A3024 RMK A01 T00590018  RH  075%=      5-min Rain = 0
KCO1 171438Z 23006KT 06/02 A3024 RMK A01 T00590019  RH  076%=      5-min Rain = 0
KCO1 171439Z 23006KT 06/02 A3024 RMK A01 T00590019  RH  076%=      5-min Rain = 0
KCO1 171440Z 23006KT 06/02 A3024 RMK A01 T00600019  RH  075%=      5-min Rain = 0
KCO1 171441Z 23006KT 06/02 A3024 RMK A01 T00610020  RH  075%=      5-min Rain = 0
KCO1 171442Z 23006KT 06/02 A3024 RMK A01 T00610019  RH  075%=      5-min Rain = 0
KCO1 171443Z 23006KT 06/02 A3024 RMK A01 T00620020  RH  074%=      5-min Rain = 0
KCO1 171444Z 23006KT 06/02 A3024 RMK A01 T00620020  RH  074%=      5-min Rain = 0
KCO1 171445Z 23006KT 06/02 A3024 RMK A01 T00630020  RH  074%=      5-min Rain = 0
KCO1 171446Z 23006KT 06/02 A3024 RMK A01 T00630020  RH  074%=      5-min Rain = 0
KCO1 171447Z 23005KT 06/02 A3025 RMK A01 T00640020  RH  074%=      5-min Rain = 0
KCO1 171448Z 23006KT 07/02 A3025 RMK A01 T00650021  RH  074%=      5-min Rain = 0
KCO1 171449Z 24005KT 07/02 A3025 RMK A01 T00650021  RH  073%=      5-min Rain = 0
KCO1 171450Z 24004KT 07/02 A3025 RMK A01 T00660021  RH  073%=      5-min Rain = 0
KCO1 171451Z 25005KT 07/02 A3024 RMK A01 T00670022  RH  073%=      5-min Rain = 0
KCO1 171452Z 25005KT 07/02 A3024 RMK A01 T00680022  RH  073%=      5-min Rain = 0
KCO1 171453Z 25007KT 07/02 A3024 RMK A01 T00680021  RH  072%=      5-min Rain = 0
KCO1 171454Z 25006KT 07/02 A3024 RMK A01 T00690020  RH  071%=      5-min Rain = 0
KCO1 171455Z 24007KT 07/02 A3024 RMK A01 T00690021  RH  071%=      5-min Rain = 0
KCO1 171456Z 25007KT 07/02 A3024 RMK A01 T00700021  RH  071%=      5-min Rain = 0
KCO1 171457Z 24006KT 07/02 A3024 RMK A01 T00690020  RH  071%=      5-min Rain = 0
KCO1 171458Z 24006KT 07/02 A3024 RMK A01 T00690020  RH  071%=      5-min Rain = 0
KCO1 171459Z 25006KT 07/02 A3024 RMK A01 T00690021  RH  071%=      5-min Rain = 0
KCO1 171500Z 24005KT 07/02 A3024 RMK A01 T00700021  RH  071%=      5-min Rain = 0
KCO1 171501Z 24006KT 07/02 A3024 RMK A01 T00700022  RH  071%=      5-min Rain = 0
KCO1 171502Z 24006KT 07/02 A3024 RMK A01 T00700021  RH  071%=      5-min Rain = 0
KCO1 171503Z 24007KT 07/02 A3024 RMK A01 T00700020  RH  070%=      5-min Rain = 0
KCO1 171504Z 24006KT 07/02 A3024 RMK A01 T00710021  RH  070%=      5-min Rain = 0
KCO1 171505Z 24006KT 07/02 A3024 RMK A01 T00710021  RH  070%=      5-min Rain = 0
KCO1 171506Z 24005KT 07/02 A3024 RMK A01 T00710021  RH  070%=      5-min Rain = 0
KCO1 171507Z 24006KT 07/02 A3024 RMK A01 T00710021  RH  071%=      5-min Rain = 0
KCO1 171508Z 23005KT 07/02 A3024 RMK A01 T00720022  RH  070%=      5-min Rain = 0
KCO1 171509Z 24005KT 07/02 A3025 RMK A01 T00720022  RH  070%=      5-min Rain = 0
KCO1 171510Z 24007KT 07/02 A3025 RMK A01 T00730022  RH  070%=      5-min Rain = 0
KCO1 171511Z 24007KT 07/02 A3025 RMK A01 T00740022  RH  069%=      5-min Rain = 0
KCO1 171512Z 24005KT 08/02 A3025 RMK A01 T00750021  RH  069%=      5-min Rain = 0
KCO1 171513Z 24005KT 08/02 A3025 RMK A01 T00750022  RH  069%=      5-min Rain = 0
KCO1 171514Z 24004KT 08/02 A3025 RMK A01 T00760022  RH  069%=      5-min Rain = 0
KCO1 171515Z 25004KT 08/02 A3025 RMK A01 T00770023  RH  069%=      5-min Rain = 0
KCO1 171516Z 24006KT 08/02 A3025 RMK A01 T00770023  RH  069%=      5-min Rain = 0
KCO1 171517Z 25006KT 08/02 A3025 RMK A01 T00780024  RH  068%=      5-min Rain = 0
KCO1 171518Z 24005KT 08/02 A3025 RMK A01 T00790023  RH  068%=      5-min Rain = 0
KCO1 171519Z 24005KT 08/02 A3025 RMK A01 T00800024  RH  068%=      5-min Rain = 0
KCO1 171520Z 24005KT 08/02 A3025 RMK A01 T00810024  RH  067%=      5-min Rain = 0
KCO1 171521Z 24005KT 08/02 A3025 RMK A01 T00820024  RH  067%=      5-min Rain = 0
KCO1 171522Z 24008KT 08/02 A3025 RMK A01 T00830023  RH  066%=      5-min Rain = 0
KCO1 171523Z 24008KT 08/02 A3025 RMK A01 T00840021  RH  065%=      5-min Rain = 0
KCO1 171524Z 24007KT 09/02 A3025 RMK A01 T00850020  RH  064%=      5-min Rain = 0
KCO1 171525Z 24006KT 09/02 A3025 RMK A01 T00860021  RH  064%=      5-min Rain = 0
KCO1 171526Z 24006KT 09/02 A3025 RMK A01 T00870022  RH  064%=      5-min Rain = 0
KCO1 171527Z 24006KT 09/02 A3025 RMK A01 T00880022  RH  063%=      5-min Rain = 0
KCO1 171528Z 25006KT 09/02 A3025 RMK A01 T00880022  RH  063%=      5-min Rain = 0
KCO1 171529Z 25007KT 09/02 A3025 RMK A01 T00880022  RH  063%=      5-min Rain = 0
KCO1 171530Z 25006KT 09/02 A3025 RMK A01 T00880022  RH  063%=      5-min Rain = 0
KCO1 171531Z 25005KT 09/02 A3025 RMK A01 T00880022  RH  063%=      5-min Rain = 0
KCO1 171532Z 25004KT 09/02 A3025 RMK A01 T00890024  RH  064%=      5-min Rain = 0
KCO1 171533Z 24005KT 09/02 A3025 RMK A01 T00900024  RH  064%=      5-min Rain = 0
KCO1 171534Z 24005KT 09/03 A3025 RMK A01 T00900025  RH  064%=      5-min Rain = 0
KCO1 171535Z 24006KT 09/03 A3025 RMK A01 T00900025  RH  063%=      5-min Rain = 0
KCO1 171536Z 24005KT 09/02 A3025 RMK A01 T00900024  RH  063%=      5-min Rain = 0
KCO1 171537Z 25005KT 09/02 A3025 RMK A01 T00910024  RH  063%=      5-min Rain = 0
KCO1 171538Z 24005KT 09/02 A3025 RMK A01 T00920023  RH  062%=      5-min Rain = 0
KCO1 171539Z 24004KT 09/02 A3025 RMK A01 T00930024  RH  062%=      5-min Rain = 0
KCO1 171540Z 24004KT 09/03 A3026 RMK A01 T00930025  RH  062%=      5-min Rain = 0
KCO1 171541Z 24004KT 09/03 A3026 RMK A01 T00940027  RH  063%=      5-min Rain = 0
KCO1 171542Z 24005KT 10/03 A3026 RMK A01 T00950027  RH  062%=      5-min Rain = 0
KCO1 171543Z 23005KT 10/03 A3026 RMK A01 T00960026  RH  062%=      5-min Rain = 0
KCO1 171544Z 24005KT 10/03 A3026 RMK A01 T00970027  RH  062%=      5-min Rain = 0
KCO1 171545Z 24006KT 10/03 A3025 RMK A01 T00980026  RH  061%=      5-min Rain = 0
KCO1 171546Z 24005KT 10/03 A3025 RMK A01 T00980025  RH  061%=      5-min Rain = 0
KCO1 171547Z 24006KT 10/03 A3025 RMK A01 T00980025  RH  060%=      5-min Rain = 0
KCO1 171548Z 24005KT 10/03 A3025 RMK A01 T00990025  RH  060%=      5-min Rain = 0
KCO1 171549Z 24006KT 10/03 A3025 RMK A01 T01000026  RH  060%=      5-min Rain = 0
KCO1 171550Z 25005KT 10/03 A3025 RMK A01 T01000025  RH  059%=      5-min Rain = 0
KCO1 171551Z 24005KT 10/03 A3025 RMK A01 T01010025  RH  059%=      5-min Rain = 0
KCO1 171552Z 24004KT 10/03 A3025 RMK A01 T01010026  RH  060%=      5-min Rain = 0
KCO1 171553Z 25005KT 10/03 A3025 RMK A01 T01010027  RH  060%=      5-min Rain = 0
KCO1 171554Z 24004KT 10/03 A3025 RMK A01 T01020027  RH  059%=      5-min Rain = 0
KCO1 171555Z 23005KT 10/03 A3025 RMK A01 T01030028  RH  060%=      5-min Rain = 0
KCO1 171556Z 24005KT 10/03 A3025 RMK A01 T01040029  RH  060%=      5-min Rain = 0
KCO1 171557Z 24005KT 11/03 A3025 RMK A01 T01050029  RH  059%=      5-min Rain = 0
KCO1 171558Z 24005KT 11/03 A3025 RMK A01 T01060029  RH  059%=      5-min Rain = 0
KCO1 171559Z 24005KT 11/03 A3025 RMK A01 T01060028  RH  058%=      5-min Rain = 0
KCO1 171600Z 25005KT 11/03 A3025 RMK A01 T01070028  RH  058%=      5-min Rain = 0
KCO1 171601Z 25005KT 11/03 A3025 RMK A01 T01080030  RH  058%=      5-min Rain = 0
KCO1 171602Z 25005KT 11/03 A3025 RMK A01 T01090029  RH  058%=      5-min Rain = 0
KCO1 171603Z 25004KT 11/03 A3025 RMK A01 T01090027  RH  057%=      5-min Rain = 0
KCO1 171604Z 25005KT 11/03 A3025 RMK A01 T01090028  RH  057%=      5-min Rain = 0
KCO1 171605Z 25004KT 11/03 A3025 RMK A01 T01100029  RH  057%=      5-min Rain = 0
KCO1 171606Z 24004KT 11/03 A3025 RMK A01 T01110030  RH  057%=      5-min Rain = 0
KCO1 171607Z 25003KT 11/03 A3025 RMK A01 T01110030  RH  057%=      5-min Rain = 0
KCO1 171608Z 25004KT 11/03 A3025 RMK A01 T01120031  RH  057%=      5-min Rain = 0
KCO1 171609Z 24004KT 11/03 A3025 RMK A01 T01130031  RH  057%=      5-min Rain = 0
KCO1 171610Z 26004KT 11/03 A3025 RMK A01 T01140032  RH  057%=      5-min Rain = 0
KCO1 171611Z 26005KT 12/03 A3025 RMK A01 T01150032  RH  056%=      5-min Rain = 0
KCO1 171612Z 25004KT 12/03 A3025 RMK A01 T01160030  RH  056%=      5-min Rain = 0
KCO1 171613Z 26004KT 12/03 A3025 RMK A01 T01160030  RH  055%=      5-min Rain = 0
KCO1 171614Z 25005KT 12/03 A3025 RMK A01 T01170031  RH  055%=      5-min Rain = 0
KCO1 171615Z 26005KT 12/03 A3026 RMK A01 T01170029  RH  055%=      5-min Rain = 0
KCO1 171616Z 26004KT 12/03 A3026 RMK A01 T01180028  RH  054%=      5-min Rain = 0
KCO1 171617Z 26004KT 12/03 A3026 RMK A01 T01180029  RH  054%=      5-min Rain = 0
KCO1 171618Z 26005KT 12/03 A3025 RMK A01 T01180029  RH  054%=      5-min Rain = 0
KCO1 171619Z 25004KT 12/03 A3025 RMK A01 T01180028  RH  054%=      5-min Rain = 0
KCO1 171620Z 26004KT 12/03 A3025 RMK A01 T01190029  RH  054%=      5-min Rain = 0
KCO1 171621Z 27004KT 12/03 A3025 RMK A01 T01200029  RH  054%=      5-min Rain = 0
KCO1 171622Z 27004KT 12/03 A3025 RMK A01 T01200029  RH  053%=      5-min Rain = 0
KCO1 171623Z 27004KT 12/03 A3025 RMK A01 T01210029  RH  053%=      5-min Rain = 0
KCO1 171624Z 28003KT 12/03 A3025 RMK A01 T01220031  RH  054%=      5-min Rain = 0
KCO1 171625Z 29005KT 12/03 A3025 RMK A01 T01230030  RH  053%=      5-min Rain = 0
KCO1 171626Z 30004KT 12/03 A3025 RMK A01 T01240028  RH  052%=      5-min Rain = 0
KCO1 171627Z 29004KT 12/03 A3025 RMK A01 T01240029  RH  052%=      5-min Rain = 0
KCO1 171628Z 28004KT 13/03 A3025 RMK A01 T01250029  RH  052%=      5-min Rain = 0
KCO1 171629Z 27005KT 13/03 A3025 RMK A01 T01260030  RH  052%=      5-min Rain = 0
KCO1 171630Z 27004KT 13/03 A3025 RMK A01 T01270029  RH  051%=      5-min Rain = 0
KCO1 171631Z 27004KT 13/03 A3025 RMK A01 T01270028  RH  051%=      5-min Rain = 0
KCO1 171632Z 30005KT 13/03 A3025 RMK A01 T01270031  RH  052%=      5-min Rain = 0
KCO1 171633Z 29004KT 13/03 A3025 RMK A01 T01290029  RH  051%=      5-min Rain = 0
KCO1 171634Z 30005KT 13/03 A3025 RMK A01 T01290027  RH  050%=      5-min Rain = 0
KCO1 171635Z 31006KT 13/03 A3025 RMK A01 T01290025  RH  049%=      5-min Rain = 0
KCO1 171636Z 31005KT 13/02 A3025 RMK A01 T01280023  RH  049%=      5-min Rain = 0
KCO1 171637Z 30005KT 13/03 A3025 RMK A01 T01280025  RH  050%=      5-min Rain = 0
KCO1 171638Z 30004KT 13/03 A3025 RMK A01 T01280026  RH  050%=      5-min Rain = 0
KCO1 171639Z 29005KT 13/03 A3026 RMK A01 T01280027  RH  050%=      5-min Rain = 0
KCO1 171640Z 30005KT 13/03 A3026 RMK A01 T01300027  RH  050%=      5-min Rain = 0
KCO1 171641Z 29005KT 13/03 A3026 RMK A01 T01300025  RH  049%=      5-min Rain = 0
KCO1 171642Z 29004KT 13/03 A3026 RMK A01 T01300025  RH  049%=      5-min Rain = 0
KCO1 171643Z 30004KT 13/03 A3026 RMK A01 T01300025  RH  049%=      5-min Rain = 0
KCO1 171644Z 29004KT 13/03 A3026 RMK A01 T01300026  RH  049%=      5-min Rain = 0
KCO1 171645Z 31004KT 13/03 A3026 RMK A01 T01300026  RH  049%=      5-min Rain = 0
KCO1 171646Z 31003KT 13/03 A3026 RMK A01 T01310027  RH  049%=      5-min Rain = 0
KCO1 171647Z 30004KT 13/02 A3026 RMK A01 T01310024  RH  048%=      5-min Rain = 0
KCO1 171648Z 29005KT 13/03 A3026 RMK A01 T01310025  RH  049%=      5-min Rain = 0
KCO1 171649Z 30005KT 13/02 A3026 RMK A01 T01320024  RH  048%=      5-min Rain = 0
KCO1 171650Z 29004KT 13/02 A3026 RMK A01 T01320024  RH  048%=      5-min Rain = 0
KCO1 171651Z 30004KT 13/03 A3026 RMK A01 T01320025  RH  048%=      5-min Rain = 0
KCO1 171652Z 30003KT 13/03 A3026 RMK A01 T01320025  RH  048%=      5-min Rain = 0
KCO1 171653Z 30003KT 13/02 A3026 RMK A01 T01320024  RH  048%=      5-min Rain = 0
KCO1 171654Z 30004KT 13/03 A3026 RMK A01 T01330026  RH  048%=      5-min Rain = 0
KCO1 171655Z 30003KT 13/03 A3026 RMK A01 T01340026  RH  048%=      5-min Rain = 0
KCO1 171656Z 28004KT 14/03 A3026 RMK A01 T01350026  RH  047%=      5-min Rain = 0
KCO1 171657Z 28004KT 14/03 A3026 RMK A01 T01350025  RH  047%=      5-min Rain = 0
KCO1 171658Z 26004KT 14/03 A3026 RMK A01 T01350025  RH  047%=      5-min Rain = 0
KCO1 171659Z 25004KT 14/03 A3026 RMK A01 T01350025  RH  047%=      5-min Rain = 0
KCO1 171700Z 26004KT 14/03 A3026 RMK A01 T01350026  RH  047%=      5-min Rain = 0
KCO1 171701Z 26003KT 14/03 A3026 RMK A01 T01350026  RH  048%=      5-min Rain = 0
KCO1 171702Z 26004KT 14/03 A3026 RMK A01 T01360027  RH  047%=      5-min Rain = 0
KCO1 171703Z 26004KT 14/03 A3026 RMK A01 T01360026  RH  047%=      5-min Rain = 0
KCO1 171704Z 26003KT 14/03 A3026 RMK A01 T01360027  RH  048%=      5-min Rain = 0
KCO1 171705Z 27003KT 14/03 A3026 RMK A01 T01370027  RH  047%=      5-min Rain = 0
KCO1 171706Z 28004KT 14/03 A3026 RMK A01 T01380027  RH  047%=      5-min Rain = 0
KCO1 171707Z 29003KT 14/03 A3026 RMK A01 T01380027  RH  047%=      5-min Rain = 0
KCO1 171708Z 28002KT 14/03 A3026 RMK A01 T01390029  RH  047%=      5-min Rain = 0
KCO1 171709Z 27003KT 14/03 A3026 RMK A01 T01400029  RH  047%=      5-min Rain = 0
KCO1 171710Z 26003KT 14/03 A3026 RMK A01 T01410027  RH  046%=      5-min Rain = 0
KCO1 171711Z 26002KT 14/03 A3026 RMK A01 T01410029  RH  047%=      5-min Rain = 0
KCO1 171712Z 26002KT 14/03 A3026 RMK A01 T01410027  RH  046%=      5-min Rain = 0
KCO1 171713Z 26002KT 14/03 A3026 RMK A01 T01420027  RH  046%=      5-min Rain = 0
KCO1 171714Z 25003KT 14/03 A3026 RMK A01 T01420028  RH  046%=      5-min Rain = 0
KCO1 171715Z 26003KT 14/03 A3026 RMK A01 T01410027  RH  046%=      5-min Rain = 0
KCO1 171716Z 24003KT 14/03 A3026 RMK A01 T01410028  RH  046%=      5-min Rain = 0
KCO1 171717Z 24003KT 14/03 A3026 RMK A01 T01410029  RH  047%=      5-min Rain = 0
KCO1 171718Z 25004KT 14/03 A3026 RMK A01 T01420028  RH  046%=      5-min Rain = 0
KCO1 171719Z 24004KT 14/03 A3026 RMK A01 T01420028  RH  046%=      5-min Rain = 0
KCO1 171720Z 25005KT 14/03 A3026 RMK A01 T01420027  RH  046%=      5-min Rain = 0
KCO1 171721Z 26004KT 14/03 A3026 RMK A01 T01420026  RH  046%=      5-min Rain = 0
KCO1 171722Z 26004KT 14/03 A3026 RMK A01 T01420025  RH  045%=      5-min Rain = 0
KCO1 171723Z 27004KT 14/03 A3026 RMK A01 T01420026  RH  046%=      5-min Rain = 0
KCO1 171724Z 26004KT 14/03 A3026 RMK A01 T01420026  RH  046%=      5-min Rain = 0
KCO1 171725Z 26004KT 14/02 A3026 RMK A01 T01420024  RH  045%=      5-min Rain = 0
KCO1 171726Z 25004KT 14/03 A3026 RMK A01 T01430026  RH  045%=      5-min Rain = 0
KCO1 171727Z 25004KT 14/03 A3026 RMK A01 T01440026  RH  045%=      5-min Rain = 0
KCO1 171728Z 25004KT 15/03 A3026 RMK A01 T01450026  RH  045%=      5-min Rain = 0
KCO1 171729Z 25003KT 15/03 A3026 RMK A01 T01450028  RH  045%=      5-min Rain = 0
KCO1 171730Z 26004KT 15/03 A3026 RMK A01 T01470030  RH  045%=      5-min Rain = 0
KCO1 171731Z 26004KT 15/03 A3026 RMK A01 T01480027  RH  044%=      5-min Rain = 0
KCO1 171732Z 25004KT 15/03 A3026 RMK A01 T01480027  RH  044%=      5-min Rain = 0
KCO1 171733Z 25004KT 15/03 A3026 RMK A01 T01490026  RH  044%=      5-min Rain = 0
KCO1 171734Z 27004KT 15/03 A3026 RMK A01 T01500026  RH  043%=      5-min Rain = 0
KCO1 171735Z 25004KT 15/03 A3026 RMK A01 T01510026  RH  043%=      5-min Rain = 0
KCO1 171736Z 23005KT 15/03 A3026 RMK A01 T01510026  RH  043%=      5-min Rain = 0
KCO1 171737Z 22004KT 15/03 A3026 RMK A01 T01520025  RH  042%=      5-min Rain = 0
KCO1 171738Z 25003KT 15/03 A3026 RMK A01 T01530026  RH  043%=      5-min Rain = 0
KCO1 171739Z 25003KT 16/03 A3026 RMK A01 T01550029  RH  043%=      5-min Rain = 0
KCO1 171740Z 23003KT 16/03 A3026 RMK A01 T01560028  RH  042%=      5-min Rain = 0
KCO1 171741Z 25002KT 16/03 A3026 RMK A01 T01560029  RH  042%=      5-min Rain = 0
KCO1 171742Z 24003KT 16/03 A3026 RMK A01 T01580029  RH  042%=      5-min Rain = 0
KCO1 171743Z 24004KT 16/02 A3026 RMK A01 T01590024  RH  040%=      5-min Rain = 0
KCO1 171744Z 25004KT 16/02 A3026 RMK A01 T01580024  RH  040%=      5-min Rain = 0
KCO1 171745Z 25004KT 16/03 A3026 RMK A01 T01580026  RH  041%=      5-min Rain = 0
KCO1 171746Z 26003KT 16/03 A3026 RMK A01 T01580025  RH  041%=      5-min Rain = 0
KCO1 171747Z 21003KT 16/03 A3026 RMK A01 T01580026  RH  041%=      5-min Rain = 0
KCO1 171748Z 25002KT 16/03 A3026 RMK A01 T01580026  RH  041%=      5-min Rain = 0
KCO1 171749Z 24003KT 16/03 A3026 RMK A01 T01600027  RH  041%=      5-min Rain = 0
KCO1 171750Z 24003KT 16/03 A3026 RMK A01 T01600026  RH  041%=      5-min Rain = 0
KCO1 171751Z 26002KT 16/03 A3026 RMK A01 T01600027  RH  041%=      5-min Rain = 0
KCO1 171752Z 23002KT 16/03 A3026 RMK A01 T01610029  RH  041%=      5-min Rain = 0
KCO1 171753Z 26002KT 16/03 A3026 RMK A01 T01630029  RH  041%=      5-min Rain = 0
KCO1 171754Z 25004KT 17/03 A3026 RMK A01 T01650031  RH  041%=      5-min Rain = 0
KCO1 171755Z 26004KT 17/03 A3026 RMK A01 T01650026  RH  039%=      5-min Rain = 0
KCO1 171756Z 26003KT 17/02 A3026 RMK A01 T01650023  RH  039%=      5-min Rain = 0
KCO1 171757Z 26003KT 16/02 A3026 RMK A01 T01640023  RH  039%=      5-min Rain = 0
KCO1 171758Z 26002KT 16/02 A3026 RMK A01 T01630022  RH  039%=      5-min Rain = 0
KCO1 171759Z 27003KT 16/02 A3026 RMK A01 T01620021  RH  038%=      5-min Rain = 0
KCO1 171800Z 27004KT 16/02 A3026 RMK A01 T01620018  RH  038%=      5-min Rain = 0
KCO1 171801Z 28002KT 16/02 A3025 RMK A01 T01630021  RH  038%=      5-min Rain = 0
KCO1 171802Z 23002KT 16/02 A3025 RMK A01 T01640023  RH  039%=      5-min Rain = 0
KCO1 171803Z 23002KT 17/02 A3025 RMK A01 T01660023  RH  038%=      5-min Rain = 0
KCO1 171804Z 24001KT 17/02 A3025 RMK A01 T01670022  RH  038%=      5-min Rain = 0
KCO1 171805Z 27002KT 17/02 A3025 RMK A01 T01680018  RH  036%=      5-min Rain = 0
KCO1 171806Z 28003KT 17/01 A3025 RMK A01 T01670014  RH  036%=      5-min Rain = 0
KCO1 171807Z 28003KT 17/02 A3025 RMK A01 T01660017  RH  036%=      5-min Rain = 0
KCO1 171808Z 28003KT 17/02 A3025 RMK A01 T01670020  RH  037%=      5-min Rain = 0
KCO1 171809Z 29002KT 17/02 A3025 RMK A01 T01670019  RH  037%=      5-min Rain = 0
KCO1 171810Z 31001KT 17/02 A3025 RMK A01 T01660018  RH  037%=      5-min Rain = 0
KCO1 171811Z 28002KT 17/02 A3025 RMK A01 T01660018  RH  037%=      5-min Rain = 0
KCO1 171812Z 28002KT 17/02 A3024 RMK A01 T01660018  RH  037%=      5-min Rain = 0
KCO1 171813Z 29003KT 17/02 A3024 RMK A01 T01660018  RH  037%=      5-min Rain = 0
KCO1 171814Z 31002KT 17/02 A3024 RMK A01 T01660019  RH  037%=      5-min Rain = 0
KCO1 171815Z 32001KT 17/02 A3024 RMK A01 T01660017  RH  037%=      5-min Rain = 0
KCO1 171816Z 36001KT 17/02 A3024 RMK A01 T01660017  RH  036%=      5-min Rain = 0
KCO1 171817Z 32002KT 17/02 A3024 RMK A01 T01660016  RH  036%=      5-min Rain = 0
KCO1 171818Z 27003KT 17/02 A3024 RMK A01 T01660016  RH  036%=      5-min Rain = 0
KCO1 171819Z 27002KT 17/02 A3024 RMK A01 T01660017  RH  036%=      5-min Rain = 0
KCO1 171820Z 27002KT 17/02 A3024 RMK A01 T01670015  RH  036%=      5-min Rain = 0
KCO1 171821Z 30002KT 17/02 A3024 RMK A01 T01680015  RH  036%=      5-min Rain = 0
KCO1 171822Z 31001KT 17/02 A3024 RMK A01 T01680015  RH  036%=      5-min Rain = 0
KCO1 171823Z 26001KT 17/02 A3024 RMK A01 T01690018  RH  036%=      5-min Rain = 0
KCO1 171824Z 29001KT 17/02 A3024 RMK A01 T01700015  RH  035%=      5-min Rain = 0
KCO1 171825Z 29001KT 17/01 A3024 RMK A01 T01710014  RH  035%=      5-min Rain = 0
KCO1 171826Z 26001KT 17/01 A3024 RMK A01 T01710013  RH  034%=      5-min Rain = 0
KCO1 171827Z 33001KT 17/02 A3024 RMK A01 T01710015  RH  035%=      5-min Rain = 0
KCO1 171828Z 31002KT 17/02 A3024 RMK A01 T01700016  RH  035%=      5-min Rain = 0
KCO1 171829Z 32000KT 17/02 A3024 RMK A01 T01690018  RH  036%=      5-min Rain = 0
KCO1 171830Z 31000KT 17/02 A3024 RMK A01 T01690017  RH  036%=      5-min Rain = 0
KCO1 171831Z 27000KT 17/02 A3024 RMK A01 T01700016  RH  035%=      5-min Rain = 0
KCO1 171832Z 19000KT 17/02 A3023 RMK A01 T01710016  RH  035%=      5-min Rain = 0
KCO1 171833Z 19000KT 17/01 A3023 RMK A01 T01710014  RH  035%=      5-min Rain = 0
KCO1 171834Z 04000KT 17/02 A3023 RMK A01 T01730017  RH  035%=      5-min Rain = 0
KCO1 171835Z 07001KT 17/02 A3023 RMK A01 T01740021  RH  036%=      5-min Rain = 0
KCO1 171836Z 17000KT 18/02 A3023 RMK A01 T01760021  RH  035%=      5-min Rain = 0
KCO1 171837Z 26002KT 18/02 A3023 RMK A01 T01770020  RH  035%=      5-min Rain = 0
KCO1 171838Z 25002KT 18/02 A3023 RMK A01 T01770016  RH  034%=      5-min Rain = 0
KCO1 171839Z 25001KT 18/02 A3022 RMK A01 T01750017  RH  034%=      5-min Rain = 0
KCO1 171840Z 26002KT 18/02 A3022 RMK A01 T01750017  RH  035%=      5-min Rain = 0
KCO1 171841Z 26003KT 18/02 A3022 RMK A01 T01760020  RH  035%=      5-min Rain = 0
KCO1 171842Z 25001KT 18/02 A3022 RMK A01 T01770020  RH  035%=      5-min Rain = 0
KCO1 171843Z 32001KT 18/02 A3022 RMK A01 T01770018  RH  034%=      5-min Rain = 0
KCO1 171844Z 01000KT 18/02 A3022 RMK A01 T01770021  RH  035%=      5-min Rain = 0
KCO1 171845Z 35000KT 18/02 A3022 RMK A01 T01770016  RH  034%=      5-min Rain = 0
KCO1 171846Z 03001KT 18/01 A3022 RMK A01 T01760014  RH  034%=      5-min Rain = 0
KCO1 171847Z 08001KT 18/02 A3022 RMK A01 T01750015  RH  034%=      5-min Rain = 0
KCO1 171848Z 09001KT 18/02 A3021 RMK A01 T01750016  RH  034%=      5-min Rain = 0
KCO1 171849Z 10001KT 18/02 A3021 RMK A01 T01760017  RH  034%=      5-min Rain = 0
KCO1 171850Z 14001KT 18/02 A3021 RMK A01 T01780017  RH  034%=      5-min Rain = 0
KCO1 171851Z 16002KT 18/02 A3021 RMK A01 T01800018  RH  034%=      5-min Rain = 0
KCO1 171852Z 18001KT 18/02 A3021 RMK A01 T01810016  RH  033%=      5-min Rain = 0
KCO1 171853Z 20001KT 18/02 A3021 RMK A01 T01820018  RH  033%=      5-min Rain = 0
KCO1 171854Z 30001KT 18/02 A3021 RMK A01 T01830019  RH  033%=      5-min Rain = 0
KCO1 171855Z 33002KT 18/02 A3021 RMK A01 T01830017  RH  033%=      5-min Rain = 0
KCO1 171856Z 32001KT 18/02 A3021 RMK A01 T01830018  RH  033%=      5-min Rain = 0
KCO1 171857Z 34002KT 18/02 A3021 RMK A01 T01820017  RH  033%=      5-min Rain = 0
KCO1 171858Z 35002KT 18/02 A302 RMK A01 T01820016  RH  033%=      5-min Rain = 0
KCO1 171859Z 05002KT 18/02 A302 RMK A01 T01820015  RH  033%=      5-min Rain = 0
KCO1 171900Z 08003KT 18/02 A302 RMK A01 T01810015  RH  033%=      5-min Rain = 0
KCO1 171901Z 08003KT 18/01 A302 RMK A01 T01800014  RH  033%=      5-min Rain = 0
KCO1 171902Z 09003KT 18/02 A302 RMK A01 T01800019  RH  034%=      5-min Rain = 0
KCO1 171903Z 10003KT 18/02 A302 RMK A01 T01810018  RH  034%=      5-min Rain = 0
KCO1 171904Z 09003KT 18/02 A302 RMK A01 T01810020  RH  034%=      5-min Rain = 0
KCO1 171905Z 09003KT 18/02 A302 RMK A01 T01820019  RH  033%=      5-min Rain = 0
KCO1 171906Z 09003KT 18/02 A3019 RMK A01 T01830018  RH  033%=      5-min Rain = 0
KCO1 171907Z 08003KT 18/02 A3019 RMK A01 T01830016  RH  033%=      5-min Rain = 0
KCO1 171908Z 08003KT 18/02 A3019 RMK A01 T01820015  RH  033%=      5-min Rain = 0
KCO1 171909Z 07003KT 18/02 A3019 RMK A01 T01810017  RH  033%=      5-min Rain = 0
KCO1 171910Z 06002KT 18/02 A3019 RMK A01 T01830018  RH  033%=      5-min Rain = 0
KCO1 171911Z 08002KT 18/02 A3019 RMK A01 T01840019  RH  033%=      5-min Rain = 0
KCO1 171912Z 07004KT 19/02 A3019 RMK A01 T01860020  RH  033%=      5-min Rain = 0
KCO1 171913Z 06002KT 19/02 A3019 RMK A01 T01860015  RH  032%=      5-min Rain = 0
KCO1 171914Z 07002KT 18/01 A3019 RMK A01 T01840013  RH  032%=      5-min Rain = 0
KCO1 171915Z 06001KT 18/02 A3019 RMK A01 T01830015  RH  032%=      5-min Rain = 0
KCO1 171916Z 07001KT 18/02 A3019 RMK A01 T01840015  RH  032%=      5-min Rain = 0
KCO1 171917Z 02000KT 19/02 A3019 RMK A01 T01850016  RH  032%=      5-min Rain = 0
KCO1 171918Z 11000KT 19/02 A3019 RMK A01 T01860017  RH  032%=      5-min Rain = 0
KCO1 171919Z 13000KT 19/02 A3019 RMK A01 T01880018  RH  032%=      5-min Rain = 0
KCO1 171920Z 11002KT 19/02 A3019 RMK A01 T01910018  RH  031%=      5-min Rain = 0
KCO1 171921Z 13001KT 19/01 A3019 RMK A01 T01910014  RH  031%=      5-min Rain = 0
KCO1 171922Z 12001KT 19/01 A3019 RMK A01 T01900013  RH  031%=      5-min Rain = 0
KCO1 171923Z 09003KT 19/02 A3019 RMK A01 T01910017  RH  031%=      5-min Rain = 0
KCO1 171924Z 08003KT 19/02 A3019 RMK A01 T01920017  RH  031%=      5-min Rain = 0
KCO1 171925Z 05003KT 19/02 A3019 RMK A01 T01910015  RH  031%=      5-min Rain = 0
KCO1 171926Z 09002KT 19/02 A3019 RMK A01 T01890015  RH  031%=      5-min Rain = 0
KCO1 171927Z 13001KT 19/02 A3019 RMK A01 T01890016  RH  031%=      5-min Rain = 0
KCO1 171928Z 14001KT 19/01 A3018 RMK A01 T01900014  RH  031%=      5-min Rain = 0
KCO1 171929Z 16001KT 19/01 A3018 RMK A01 T01910013  RH  030%=      5-min Rain = 0
KCO1 171930Z 07001KT 19/01 A3018 RMK A01 T01920014  RH  030%=      5-min Rain = 0
KCO1 171931Z 04001KT 19/02 A3018 RMK A01 T01940018  RH  031%=      5-min Rain = 0
KCO1 171932Z 02000KT 19/02 A3018 RMK A01 T01940016  RH  030%=      5-min Rain = 0
KCO1 171933Z 11003KT 19/02 A3018 RMK A01 T01940017  RH  031%=      5-min Rain = 0
KCO1 171934Z 11003KT 20/02 A3018 RMK A01 T01950016  RH  030%=      5-min Rain = 0
KCO1 171935Z 14002KT 19/01 A3018 RMK A01 T01940013  RH  030%=      5-min Rain = 0
KCO1 171936Z 13002KT 19/02 A3018 RMK A01 T01940015  RH  030%=      5-min Rain = 0
KCO1 171937Z 11002KT 20/01 A3018 RMK A01 T01950012  RH  030%=      5-min Rain = 0
KCO1 171938Z 11003KT 20/01 A3018 RMK A01 T01950011  RH  029%=      5-min Rain = 0
KCO1 171939Z 11002KT 20/01 A3018 RMK A01 T01950013  RH  030%=      5-min Rain = 0
KCO1 171940Z 18003KT 20/01 A3018 RMK A01 T01950014  RH  030%=      5-min Rain = 0
KCO1 171941Z 19003KT 20/02 A3018 RMK A01 T01970016  RH  030%=      5-min Rain = 0
KCO1 171942Z 18004KT 20/01 A3018 RMK A01 T01990014  RH  029%=      5-min Rain = 0
KCO1 171943Z 20003KT 20/02 A3018 RMK A01 T01990015  RH  029%=      5-min Rain = 0
KCO1 171944Z 19002KT 20/01 A3018 RMK A01 T01990014  RH  029%=      5-min Rain = 0
KCO1 171945Z 18004KT 20/01 A3018 RMK A01 T01990014  RH  029%=      5-min Rain = 0
KCO1 171946Z 17002KT 20/02 A3018 RMK A01 T02000017  RH  030%=      5-min Rain = 0
KCO1 171947Z 12003KT 20/02 A3018 RMK A01 T02000016  RH  029%=      5-min Rain = 0
KCO1 171948Z 13005KT 20/01 A3017 RMK A01 T02010014  RH  029%=      5-min Rain = 0
KCO1 171949Z 12005KT 20/01 A3017 RMK A01 T01990013  RH  029%=      5-min Rain = 0
KCO1 171950Z 13005KT 20/01 A3017 RMK A01 T01990013  RH  029%=      5-min Rain = 0
KCO1 171951Z 14003KT 20/01 A3017 RMK A01 T01970011  RH  029%=      5-min Rain = 0
KCO1 171952Z 09002KT 20/01 A3017 RMK A01 T01960010  RH  029%=      5-min Rain = 0
KCO1 171953Z 10000KT 20/01 A3017 RMK A01 T01960012  RH  029%=      5-min Rain = 0
KCO1 171954Z 06001KT 20/02 A3017 RMK A01 T01970016  RH  030%=      5-min Rain = 0
KCO1 171955Z 10003KT 20/01 A3017 RMK A01 T01990014  RH  029%=      5-min Rain = 0
KCO1 171956Z 11003KT 20/01 A3017 RMK A01 T02000013  RH  029%=      5-min Rain = 0
KCO1 171957Z 14003KT 20/02 A3017 RMK A01 T02010015  RH  029%=      5-min Rain = 0
KCO1 171958Z 15004KT 20/01 A3017 RMK A01 T02010012  RH  028%=      5-min Rain = 0
KCO1 171959Z 16003KT 20/01 A3017 RMK A01 T02000013  RH  029%=      5-min Rain = 0
KCO1 172000Z 14004KT 20/02 A3017 RMK A01 T02000015  RH  029%=      5-min Rain = 0
KCO1 172001Z 10005KT 20/02 A3017 RMK A01 T02010015  RH  029%=      5-min Rain = 0
KCO1 172002Z 12005KT 20/02 A3017 RMK A01 T02020016  RH  029%=      5-min Rain = 0
KCO1 172003Z 17003KT 20/02 A3017 RMK A01 T02040015  RH  028%=      5-min Rain = 0
KCO1 172004Z 16004KT 20/01 A3017 RMK A01 T02030013  RH  028%=      5-min Rain = 0
KCO1 172005Z 14006KT 20/01 A3016 RMK A01 T02030012  RH  028%=      5-min Rain = 0
KCO1 172006Z 12005KT 20/01 A3016 RMK A01 T02020013  RH  028%=      5-min Rain = 0
KCO1 172007Z 14007KT 20/01 A3016 RMK A01 T02010014  RH  029%=      5-min Rain = 0
KCO1 172008Z 15005KT 20/01 A3016 RMK A01 T02010013  RH  028%=      5-min Rain = 0
KCO1 172009Z 16004KT 20/02 A3016 RMK A01 T02010015  RH  029%=      5-min Rain = 0
KCO1 172010Z 19006KT 20/02 A3016 RMK A01 T02030018  RH  029%=      5-min Rain = 0
KCO1 172011Z 17006KT 20/02 A3016 RMK A01 T02040017  RH  029%=      5-min Rain = 0
KCO1 172012Z 16008KT 21/02 A3016 RMK A01 T02050020  RH  029%=      5-min Rain = 0
KCO1 172013Z 16007KT 20/02 A3016 RMK A01 T02040016  RH  029%=      5-min Rain = 0
KCO1 172014Z 15005KT 20/02 A3016 RMK A01 T02020016  RH  029%=      5-min Rain = 0
KCO1 172015Z 13004KT 20/02 A3016 RMK A01 T02020017  RH  029%=      5-min Rain = 0
KCO1 172016Z 16006KT 20/02 A3016 RMK A01 T02020019  RH  030%=      5-min Rain = 0
KCO1 172017Z 18008KT 20/02 A3016 RMK A01 T02020015  RH  029%=      5-min Rain = 0
KCO1 172018Z 18007KT 20/01 A3016 RMK A01 T02020014  RH  029%=      5-min Rain = 0
KCO1 172019Z 18006KT 20/02 A3016 RMK A01 T02020015  RH  029%=      5-min Rain = 0
KCO1 172020Z 19005KT 20/02 A3016 RMK A01 T02020015  RH  029%=      5-min Rain = 0
KCO1 172021Z 17007KT 20/02 A3015 RMK A01 T02020018  RH  029%=      5-min Rain = 0
KCO1 172022Z 14005KT 20/02 A3015 RMK A01 T02040018  RH  029%=      5-min Rain = 0
KCO1 172023Z 16006KT 20/02 A3015 RMK A01 T02040019  RH  029%=      5-min Rain = 0
KCO1 172024Z 17006KT 20/02 A3015 RMK A01 T02030018  RH  029%=      5-min Rain = 0
KCO1 172025Z 16004KT 20/02 A3015 RMK A01 T02010015  RH  029%=      5-min Rain = 0
KCO1 172026Z 12006KT 20/02 A3015 RMK A01 T02010019  RH  030%=      5-min Rain = 0
KCO1 172027Z 12004KT 20/02 A3015 RMK A01 T02010020  RH  030%=      5-min Rain = 0
KCO1 172028Z 10003KT 20/02 A3015 RMK A01 T02010019  RH  030%=      5-min Rain = 0
KCO1 172029Z 10003KT 20/02 A3015 RMK A01 T02010019  RH  030%=      5-min Rain = 0
KCO1 172030Z 11005KT 20/02 A3015 RMK A01 T02010018  RH  030%=      5-min Rain = 0
KCO1 172031Z 12007KT 20/02 A3015 RMK A01 T02010018  RH  030%=      5-min Rain = 0
KCO1 172032Z 18007KT 20/02 A3015 RMK A01 T02010016  RH  029%=      5-min Rain = 0
KCO1 172033Z 17007KT 20/01 A3015 RMK A01 T02010014  RH  029%=      5-min Rain = 0
KCO1 172034Z 18004KT 20/01 A3015 RMK A01 T02010013  RH  028%=      5-min Rain = 0
KCO1 172035Z 17001KT 20/01 A3015 RMK A01 T02000012  RH  028%=      5-min Rain = 0
KCO1 172036Z 17003KT 20/01 A3014 RMK A01 T02010013  RH  029%=      5-min Rain = 0
KCO1 172037Z 14004KT 20/01 A3014 RMK A01 T02010013  RH  028%=      5-min Rain = 0
KCO1 172038Z 15003KT 20/01 A3014 RMK A01 T02010013  RH  029%=      5-min Rain = 0
KCO1 172039Z 14004KT 20/01 A3014 RMK A01 T02020013  RH  028%=      5-min Rain = 0
KCO1 172040Z 17005KT 20/02 A3014 RMK A01 T02030015  RH  029%=      5-min Rain = 0
KCO1 172041Z 15004KT 20/02 A3014 RMK A01 T02040017  RH  029%=      5-min Rain = 0
KCO1 172042Z 12003KT 21/02 A3014 RMK A01 T02060017  RH  029%=      5-min Rain = 0
KCO1 172043Z 13004KT 21/02 A3014 RMK A01 T02070015  RH  028%=      5-min Rain = 0
KCO1 172044Z 15004KT 21/01 A3014 RMK A01 T02070013  RH  028%=      5-min Rain = 0
KCO1 172045Z 15006KT 21/01 A3014 RMK A01 T02060014  RH  028%=      5-min Rain = 0
KCO1 172046Z 15006KT 21/01 A3014 RMK A01 T02060013  RH  028%=      5-min Rain = 0
KCO1 172047Z 16004KT 21/01 A3014 RMK A01 T02050012  RH  027%=      5-min Rain = 0
KCO1 172048Z 16004KT 21/01 A3014 RMK A01 T02050013  RH  028%=      5-min Rain = 0
KCO1 172049Z 13005KT 21/02 A3014 RMK A01 T02060015  RH  028%=      5-min Rain = 0
KCO1 172050Z 13005KT 21/01 A3014 RMK A01 T02070013  RH  028%=      5-min Rain = 0
KCO1 172051Z 16006KT 21/02 A3014 RMK A01 T02060016  RH  028%=      5-min Rain = 0
KCO1 172052Z 14005KT 21/02 A3014 RMK A01 T02070015  RH  028%=      5-min Rain = 0
KCO1 172053Z 13004KT 21/02 A3014 RMK A01 T02070015  RH  028%=      5-min Rain = 0
KCO1 172054Z 12004KT 21/01 A3014 RMK A01 T02060014  RH  028%=      5-min Rain = 0
KCO1 172055Z 12004KT 21/01 A3014 RMK A01 T02050014  RH  028%=      5-min Rain = 0
KCO1 172056Z 12004KT 21/01 A3014 RMK A01 T02050013  RH  028%=      5-min Rain = 0
KCO1 172057Z 12002KT 21/01 A3014 RMK A01 T02050013  RH  028%=      5-min Rain = 0
KCO1 172058Z 08002KT 21/01 A3013 RMK A01 T02050013  RH  028%=      5-min Rain = 0
KCO1 172059Z 10003KT 21/02 A3013 RMK A01 T02060016  RH  028%=      5-min Rain = 0
KCO1 172100Z 09004KT 21/02 A3014 RMK A01 T02070017  RH  028%=      5-min Rain = 0
KCO1 172101Z 11004KT 21/02 A3013 RMK A01 T02080015  RH  028%=      5-min Rain = 0
KCO1 172102Z 13006KT 21/02 A3013 RMK A01 T02080017  RH  028%=      5-min Rain = 0
KCO1 172103Z 13004KT 21/02 A3013 RMK A01 T02090015  RH  028%=      5-min Rain = 0
KCO1 172104Z 14004KT 21/02 A3013 RMK A01 T02080015  RH  028%=      5-min Rain = 0
KCO1 172105Z 14004KT 21/02 A3013 RMK A01 T02090016  RH  028%=      5-min Rain = 0
KCO1 172106Z 15003KT 21/02 A3013 RMK A01 T02100017  RH  028%=      5-min Rain = 0
KCO1 172107Z 13004KT 21/02 A3013 RMK A01 T02110017  RH  028%=      5-min Rain = 0
KCO1 172108Z 15007KT 21/02 A3013 RMK A01 T02120017  RH  027%=      5-min Rain = 0
KCO1 172109Z 15007KT 21/01 A3013 RMK A01 T02130014  RH  027%=      5-min Rain = 0
KCO1 172110Z 16006KT 21/01 A3013 RMK A01 T02120013  RH  027%=      5-min Rain = 0
KCO1 172111Z 15003KT 21/01 A3013 RMK A01 T02110014  RH  027%=      5-min Rain = 0
KCO1 172112Z 18005KT 21/01 A3013 RMK A01 T02100014  RH  027%=      5-min Rain = 0
KCO1 172113Z 17002KT 21/01 A3013 RMK A01 T02110013  RH  027%=      5-min Rain = 0
KCO1 172114Z 16001KT 21/01 A3013 RMK A01 T02110013  RH  027%=      5-min Rain = 0
KCO1 172115Z 19003KT 21/01 A3013 RMK A01 T02120014  RH  027%=      5-min Rain = 0
KCO1 172116Z 19003KT 21/01 A3013 RMK A01 T02120013  RH  027%=      5-min Rain = 0
KCO1 172117Z 13003KT 21/02 A3012 RMK A01 T02120015  RH  027%=      5-min Rain = 0
KCO1 172118Z 11005KT 21/02 A3012 RMK A01 T02120015  RH  027%=      5-min Rain = 0
KCO1 172119Z 12006KT 21/01 A3012 RMK A01 T02120014  RH  027%=      5-min Rain = 0
KCO1 172120Z 12005KT 21/01 A3012 RMK A01 T02120014  RH  027%=      5-min Rain = 0
KCO1 172121Z 12005KT 21/01 A3012 RMK A01 T02120014  RH  027%=      5-min Rain = 0
KCO1 172122Z 14006KT 21/01 A3012 RMK A01 T02110014  RH  027%=      5-min Rain = 0
KCO1 172123Z 13005KT 21/01 A3012 RMK A01 T02110013  RH  027%=      5-min Rain = 0
KCO1 172124Z 12005KT 21/01 A3012 RMK A01 T02100013  RH  027%=      5-min Rain = 0
KCO1 172125Z 13006KT 21/01 A3012 RMK A01 T02100014  RH  027%=      5-min Rain = 0
KCO1 172126Z 13005KT 21/01 A3012 RMK A01 T02100012  RH  027%=      5-min Rain = 0
KCO1 172127Z 13006KT 21/02 A3012 RMK A01 T02110015  RH  027%=      5-min Rain = 0
KCO1 172128Z 13006KT 21/01 A3012 RMK A01 T02110014  RH  027%=      5-min Rain = 0
KCO1 172129Z 12004KT 21/01 A3012 RMK A01 T02110014  RH  027%=      5-min Rain = 0
KCO1 172130Z 13006KT 21/02 A3012 RMK A01 T02120016  RH  027%=      5-min Rain = 0
KCO1 172131Z 14007KT 21/02 A3012 RMK A01 T02130015  RH  027%=      5-min Rain = 0
KCO1 172132Z 14006KT 21/02 A3012 RMK A01 T02130016  RH  027%=      5-min Rain = 0
KCO1 172133Z 15006KT 21/02 A3012 RMK A01 T02120015  RH  027%=      5-min Rain = 0
KCO1 172134Z 14007KT 21/02 A3012 RMK A01 T02120017  RH  027%=      5-min Rain = 0
KCO1 172135Z 14007KT 21/02 A3012 RMK A01 T02120016  RH  027%=      5-min Rain = 0
KCO1 172136Z 15006KT 21/02 A3012 RMK A01 T02110015  RH  027%=      5-min Rain = 0
KCO1 172137Z 13005KT 21/02 A3012 RMK A01 T02110018  RH  028%=      5-min Rain = 0
KCO1 172138Z 12003KT 21/02 A3012 RMK A01 T02120020  RH  028%=      5-min Rain = 0
KCO1 172139Z 12003KT 21/02 A3012 RMK A01 T02140019  RH  028%=      5-min Rain = 0
KCO1 172140Z 11005KT 22/02 A3012 RMK A01 T02150018  RH  027%=      5-min Rain = 0
KCO1 172141Z 12005KT 22/01 A3012 RMK A01 T02150014  RH  026%=      5-min Rain = 0
KCO1 172142Z 13006KT 21/02 A3012 RMK A01 T02140016  RH  027%=      5-min Rain = 0
KCO1 172143Z 13006KT 21/02 A3012 RMK A01 T02140019  RH  027%=      5-min Rain = 0
KCO1 172144Z 13004KT 21/02 A3012 RMK A01 T02140016  RH  027%=      5-min Rain = 0
KCO1 172145Z 11004KT 21/02 A3012 RMK A01 T02140015  RH  027%=      5-min Rain = 0
KCO1 172146Z 13005KT 21/02 A3012 RMK A01 T02140016  RH  027%=      5-min Rain = 0
KCO1 172147Z 14005KT 21/02 A3012 RMK A01 T02140016  RH  027%=      5-min Rain = 0
KCO1 172148Z 12007KT 22/02 A3012 RMK A01 T02160020  RH  027%=      5-min Rain = 0
KCO1 172149Z 12007KT 22/02 A3012 RMK A01 T02170018  RH  027%=      5-min Rain = 0
KCO1 172150Z 13007KT 22/02 A3012 RMK A01 T02160016  RH  027%=      5-min Rain = 0
KCO1 172151Z 12005KT 22/02 A3012 RMK A01 T02150015  RH  027%=      5-min Rain = 0
KCO1 172152Z 10006KT 21/02 A3012 RMK A01 T02140015  RH  027%=      5-min Rain = 0
KCO1 172153Z 10004KT 21/02 A3012 RMK A01 T02130015  RH  027%=      5-min Rain = 0
KCO1 172154Z 12005KT 21/02 A3012 RMK A01 T02130017  RH  027%=      5-min Rain = 0
KCO1 172155Z 11006KT 21/01 A3012 RMK A01 T02130014  RH  027%=      5-min Rain = 0
KCO1 172156Z 11005KT 21/01 A3012 RMK A01 T02130013  RH  027%=      5-min Rain = 0
KCO1 172157Z 11004KT 21/02 A3011 RMK A01 T02130016  RH  027%=      5-min Rain = 0
KCO1 172158Z 10004KT 21/02 A3011 RMK A01 T02130019  RH  028%=      5-min Rain = 0
KCO1 172159Z 11006KT 21/02 A3011 RMK A01 T02140019  RH  028%=      5-min Rain = 0
KCO1 172200Z 11006KT 22/02 A3011 RMK A01 T02150015  RH  027%=      5-min Rain = 0
KCO1 172201Z 13006KT 21/02 A3011 RMK A01 T02140019  RH  027%=      5-min Rain = 0
KCO1 172202Z 12005KT 22/02 A3011 RMK A01 T02150015  RH  026%=      5-min Rain = 0
KCO1 172203Z 14004KT 22/02 A3011 RMK A01 T02150016  RH  027%=      5-min Rain = 0
KCO1 172204Z 15004KT 22/01 A3011 RMK A01 T02160013  RH  026%=      5-min Rain = 0
KCO1 172205Z 15004KT 22/01 A3011 RMK A01 T02170012  RH  026%=      5-min Rain = 0
KCO1 172206Z 14005KT 22/01 A3011 RMK A01 T02180012  RH  026%=      5-min Rain = 0
KCO1 172207Z 12004KT 22/01 A3011 RMK A01 T02180012  RH  025%=      5-min Rain = 0
KCO1 172208Z 12005KT 22/01 A3011 RMK A01 T02180013  RH  026%=      5-min Rain = 0
KCO1 172209Z 10004KT 22/01 A3011 RMK A01 T02170013  RH  026%=      5-min Rain = 0
KCO1 172210Z 09002KT 22/01 A3011 RMK A01 T02170014  RH  026%=      5-min Rain = 0
KCO1 172211Z 10004KT 22/01 A3011 RMK A01 T02170014  RH  026%=      5-min Rain = 0
KCO1 172212Z 10005KT 22/02 A3011 RMK A01 T02170015  RH  026%=      5-min Rain = 0
KCO1 172213Z 13006KT 22/01 A3011 RMK A01 T02170012  RH  026%=      5-min Rain = 0
KCO1 172214Z 13006KT 22/01 A3011 RMK A01 T02170007  RH  025%=      5-min Rain = 0
KCO1 172215Z 13005KT 22/00 A3011 RMK A01 T02170004  RH  024%=      5-min Rain = 0
KCO1 172216Z 13005KT 22/01 A3011 RMK A01 T02160008  RH  025%=      5-min Rain = 0
KCO1 172217Z 14004KT 22/01 A3011 RMK A01 T02160007  RH  025%=      5-min Rain = 0
KCO1 172218Z 14004KT 22/01 A3011 RMK A01 T02160010  RH  025%=      5-min Rain = 0
KCO1 172219Z 11005KT 22/01 A3011 RMK A01 T02170014  RH  026%=      5-min Rain = 0
KCO1 172220Z 10004KT 22/01 A3011 RMK A01 T02180014  RH  026%=      5-min Rain = 0
KCO1 172221Z 10005KT 22/01 A3011 RMK A01 T02180012  RH  026%=      5-min Rain = 0
KCO1 172222Z 10004KT 22/01 A3011 RMK A01 T02180011  RH  025%=      5-min Rain = 0
KCO1 172223Z 11005KT 22/01 A3011 RMK A01 T02170012  RH  026%=      5-min Rain = 0
KCO1 172224Z 11005KT 22/01 A3011 RMK A01 T02170014  RH  026%=      5-min Rain = 0
KCO1 172225Z 11004KT 22/01 A3011 RMK A01 T02170010  RH  025%=      5-min Rain = 0
KCO1 172226Z 10003KT 22/01 A3011 RMK A01 T02160010  RH  025%=      5-min Rain = 0
KCO1 172227Z 10001KT 22/01 A3011 RMK A01 T02160011  RH  026%=      5-min Rain = 0
KCO1 172228Z 12003KT 22/01 A3011 RMK A01 T02160008  RH  025%=      5-min Rain = 0
KCO1 172229Z 11006KT 22/01 A3011 RMK A01 T02160007  RH  025%=      5-min Rain = 0
KCO1 172230Z 12006KT 22/01 A3011 RMK A01 T02160005  RH  024%=      5-min Rain = 0
KCO1 172231Z 12005KT 22/00 A3011 RMK A01 T02150003  RH  024%=      5-min Rain = 0
KCO1 172232Z 13004KT 22/01 A3011 RMK A01 T02160006  RH  025%=      5-min Rain = 0
KCO1 172233Z 12005KT 22/01 A3011 RMK A01 T02150005  RH  025%=      5-min Rain = 0
KCO1 172234Z 12005KT 22/00 A3011 RMK A01 T02150004  RH  024%=      5-min Rain = 0
KCO1 172235Z 13005KT 22/00 A3011 RMK A01 T02150004  RH  024%=      5-min Rain = 0
KCO1 172236Z 13005KT 22/01 A3011 RMK A01 T02150007  RH  025%=      5-min Rain = 0
KCO1 172237Z 13005KT 21/01 A3011 RMK A01 T02140005  RH  025%=      5-min Rain = 0
KCO1 172238Z 13005KT 22/00 A3011 RMK A01 T02150003  RH  024%=      5-min Rain = 0
KCO1 172239Z 13004KT 21/00 A3011 RMK A01 T02140004  RH  025%=      5-min Rain = 0
KCO1 172240Z 13004KT 22/00 A3011 RMK A01 T02150004  RH  025%=      5-min Rain = 0
KCO1 172241Z 14004KT 22/01 A3011 RMK A01 T02150006  RH  025%=      5-min Rain = 0
KCO1 172242Z 13004KT 22/00 A3011 RMK A01 T02150004  RH  025%=      5-min Rain = 0
KCO1 172243Z 14005KT 22/01 A3011 RMK A01 T02150005  RH  025%=      5-min Rain = 0
KCO1 172244Z 13003KT 22/00 A3011 RMK A01 T02160004  RH  024%=      5-min Rain = 0
KCO1 172245Z 13005KT 22/01 A3011 RMK A01 T02160005  RH  025%=      5-min Rain = 0
KCO1 172246Z 12006KT 22/00 A3011 RMK A01 T02160004  RH  024%=      5-min Rain = 0
KCO1 172247Z 12005KT 21/00 A3011 RMK A01 T02140002  RH  024%=      5-min Rain = 0
KCO1 172248Z 12005KT 21/01 A3011 RMK A01 T02140005  RH  025%=      5-min Rain = 0
KCO1 172249Z 12004KT 21/00 A3011 RMK A01 T02130002  RH  024%=      5-min Rain = 0
KCO1 172250Z 11004KT 21/01 A3011 RMK A01 T02140005  RH  025%=      5-min Rain = 0
KCO1 172251Z 12005KT 21/01 A3011 RMK A01 T02140009  RH  026%=      5-min Rain = 0
KCO1 172252Z 12007KT 22/01 A3011 RMK A01 T02150006  RH  025%=      5-min Rain = 0
KCO1 172253Z 12005KT 22/00 A3011 RMK A01 T02150003  RH  024%=      5-min Rain = 0
KCO1 172254Z 11005KT 22/00 A3011 RMK A01 T02150003  RH  024%=      5-min Rain = 0
KCO1 172255Z 10005KT 21/01 A3011 RMK A01 T02140006  RH  025%=      5-min Rain = 0
KCO1 172256Z 10004KT 21/01 A3011 RMK A01 T02140009  RH  025%=      5-min Rain = 0
KCO1 172257Z 10007KT 21/01 A3011 RMK A01 T02140008  RH  025%=      5-min Rain = 0
KCO1 172258Z 11006KT 21/00 A301 RMK A01 T02130004  RH  025%=      5-min Rain = 0
KCO1 172259Z 10005KT 21/01 A301 RMK A01 T02120005  RH  025%=      5-min Rain = 0
KCO1 172300Z 08005KT 21/01 A301 RMK A01 T02110009  RH  026%=      5-min Rain = 0
KCO1 172301Z 09006KT 21/01 A301 RMK A01 T02110007  RH  026%=      5-min Rain = 0
KCO1 172302Z 10006KT 21/01 A301 RMK A01 T02110007  RH  026%=      5-min Rain = 0
KCO1 172303Z 10005KT 21/01 A301 RMK A01 T02100006  RH  026%=      5-min Rain = 0
KCO1 172304Z 10005KT 21/00 A301 RMK A01 T02090003  RH  025%=      5-min Rain = 0
KCO1 172305Z 11005KT 21/00 A301 RMK A01 T02090001  RH  025%=      5-min Rain = 0
KCO1 172306Z 11005KT 21/00 A301 RMK A01 T02090002  RH  025%=      5-min Rain = 0
KCO1 172307Z 11005KT 21/00 A301 RMK A01 T02090002  RH  025%=      5-min Rain = 0
KCO1 172308Z 09004KT 21/00 A301 RMK A01 T02090004  RH  025%=      5-min Rain = 0
KCO1 172309Z 10006KT 21/01 A301 RMK A01 T02100006  RH  026%=      5-min Rain = 0
KCO1 172310Z 10006KT 21/00 A301 RMK A01 T02090004  RH  026%=      5-min Rain = 0
KCO1 172311Z 10005KT 21/01 A301 RMK A01 T02080005  RH  026%=      5-min Rain = 0
KCO1 172312Z 10005KT 21/00 A301 RMK A01 T02080004  RH  026%=      5-min Rain = 0
KCO1 172313Z 11005KT 21/01 A301 RMK A01 T02080005  RH  026%=      5-min Rain = 0
KCO1 172314Z 10005KT 21/01 A3011 RMK A01 T02080005  RH  026%=      5-min Rain = 0
KCO1 172315Z 09005KT 21/01 A3011 RMK A01 T02080007  RH  026%=      5-min Rain = 0
KCO1 172316Z 09005KT 21/01 A3011 RMK A01 T02080007  RH  026%=      5-min Rain = 0
KCO1 172317Z 10005KT 21/01 A3011 RMK A01 T02080005  RH  026%=      5-min Rain = 0
KCO1 172318Z 10004KT 21/01 A3011 RMK A01 T02070006  RH  026%=      5-min Rain = 0
KCO1 172319Z 10004KT 21/01 A301 RMK A01 T02080009  RH  027%=      5-min Rain = 0
KCO1 172320Z 08004KT 21/01 A301 RMK A01 T02070010  RH  027%=      5-min Rain = 0
KCO1 172321Z 09004KT 21/01 A301 RMK A01 T02070011  RH  027%=      5-min Rain = 0
KCO1 172322Z 10004KT 21/01 A301 RMK A01 T02060011  RH  027%=      5-min Rain = 0
KCO1 172323Z 10004KT 21/01 A301 RMK A01 T02060009  RH  027%=      5-min Rain = 0
KCO1 172324Z 09004KT 21/01 A301 RMK A01 T02060010  RH  027%=      5-min Rain = 0
KCO1 172325Z 09004KT 21/01 A301 RMK A01 T02050010  RH  027%=      5-min Rain = 0
KCO1 172326Z 09005KT 21/01 A301 RMK A01 T02050010  RH  027%=      5-min Rain = 0
KCO1 172327Z 09005KT 21/01 A301 RMK A01 T02050006  RH  026%=      5-min Rain = 0
KCO1 172328Z 09005KT 21/01 A301 RMK A01 T02050008  RH  027%=      5-min Rain = 0
KCO1 172329Z 09005KT 20/01 A301 RMK A01 T02040007  RH  027%=      5-min Rain = 0
KCO1 172330Z 08004KT 20/01 A301 RMK A01 T02040008  RH  027%=      5-min Rain = 0
KCO1 172331Z 08005KT 20/01 A301 RMK A01 T02030011  RH  028%=      5-min Rain = 0
KCO1 172332Z 08005KT 20/01 A301 RMK A01 T02020009  RH  028%=      5-min Rain = 0
KCO1 172333Z 08005KT 20/01 A301 RMK A01 T02010010  RH  028%=      5-min Rain = 0
KCO1 172334Z 08004KT 20/01 A301 RMK A01 T02000010  RH  028%=      5-min Rain = 0
KCO1 172335Z 08004KT 20/01 A301 RMK A01 T01990010  RH  028%=      5-min Rain = 0
KCO1 172336Z 08004KT 20/01 A301 RMK A01 T01980010  RH  028%=      5-min Rain = 0
KCO1 172337Z 08004KT 20/01 A301 RMK A01 T01980011  RH  029%=      5-min Rain = 0
KCO1 172338Z 08004KT 20/01 A301 RMK A01 T01980012  RH  029%=      5-min Rain = 0
KCO1 172339Z 08003KT 20/01 A301 RMK A01 T01970013  RH  029%=      5-min Rain = 0
KCO1 172340Z 08004KT 20/01 A301 RMK A01 T01960013  RH  029%=      5-min Rain = 0
KCO1 172341Z 08004KT 20/01 A301 RMK A01 T01960014  RH  030%=      5-min Rain = 0
KCO1 172342Z 08004KT 20/01 A301 RMK A01 T01950014  RH  030%=      5-min Rain = 0
KCO1 172343Z 08004KT 19/01 A301 RMK A01 T01940014  RH  030%=      5-min Rain = 0
KCO1 172344Z 08004KT 19/01 A301 RMK A01 T01930014  RH  030%=      5-min Rain = 0
KCO1 172345Z 07004KT 19/01 A301 RMK A01 T01920014  RH  030%=      5-min Rain = 0
KCO1 172346Z 07004KT 19/02 A301 RMK A01 T01910015  RH  031%=      5-min Rain = 0
KCO1 172347Z 07004KT 19/01 A301 RMK A01 T01900014  RH  031%=      5-min Rain = 0
KCO1 172348Z 07004KT 19/01 A301 RMK A01 T01890014  RH  031%=      5-min Rain = 0
KCO1 172349Z 07004KT 19/01 A301 RMK A01 T01880014  RH  031%=      5-min Rain = 0
KCO1 172350Z 06004KT 19/01 A301 RMK A01 T01870014  RH  031%=      5-min Rain = 0
KCO1 172351Z 07005KT 19/02 A301 RMK A01 T01870015  RH  032%=      5-min Rain = 0
KCO1 172352Z 07005KT 19/02 A301 RMK A01 T01850016  RH  032%=      5-min Rain = 0
KCO1 172353Z 07005KT 18/02 A301 RMK A01 T01840018  RH  033%=      5-min Rain = 0
KCO1 172354Z 07005KT 18/02 A301 RMK A01 T01830019  RH  033%=      5-min Rain = 0
KCO1 172355Z 07005KT 18/02 A301 RMK A01 T01820018  RH  033%=      5-min Rain = 0
KCO1 172356Z 07005KT 18/02 A301 RMK A01 T01810018  RH  034%=      5-min Rain = 0
KCO1 172357Z 07005KT 18/02 A301 RMK A01 T01800018  RH  034%=      5-min Rain = 0
KCO1 172358Z 07005KT 18/02 A301 RMK A01 T01790017  RH  034%=      5-min Rain = 0
KCO1 172359Z 07005KT 18/02 A301 RMK A01 T01780018  RH  034%=      5-min Rain = 0
KCO1 180000Z 07005KT 18/02 A301 RMK A01 T01770018  RH  034%=      5-min Rain = 0
KCO1 180001Z 07005KT 18/02 A301 RMK A01 T01760017  RH  034%=      5-min Rain = 0
KCO1 180002Z 07005KT 18/02 A301 RMK A01 T01760016  RH  034%=      5-min Rain = 0
KCO1 180003Z 07005KT 18/02 A301 RMK A01 T01750015  RH  034%=      5-min Rain = 0
KCO1 180004Z 07005KT 17/02 A301 RMK A01 T01740015  RH  034%=      5-min Rain = 0
KCO1 180005Z 07005KT 17/02 A301 RMK A01 T01730015  RH  034%=      5-min Rain = 0
KCO1 180006Z 07005KT 17/02 A301 RMK A01 T01730015  RH  035%=      5-min Rain = 0
KCO1 180007Z 07005KT 17/02 A301 RMK A01 T01710016  RH  035%=      5-min Rain = 0
KCO1 180008Z 08005KT 17/02 A301 RMK A01 T01700016  RH  035%=      5-min Rain = 0
KCO1 180009Z 08005KT 17/02 A301 RMK A01 T01690016  RH  036%=      5-min Rain = 0
KCO1 180010Z 08005KT 17/02 A301 RMK A01 T01690016  RH  036%=      5-min Rain = 0
KCO1 180011Z 08005KT 17/02 A301 RMK A01 T01670017  RH  036%=      5-min Rain = 0
KCO1 180012Z 08005KT 17/02 A301 RMK A01 T01660017  RH  037%=      5-min Rain = 0
KCO1 180013Z 08005KT 17/02 A301 RMK A01 T01650017  RH  037%=      5-min Rain = 0
KCO1 180014Z 08005KT 16/02 A3009 RMK A01 T01640017  RH  037%=      5-min Rain = 0
KCO1 180015Z 07005KT 16/02 A3009 RMK A01 T01630017  RH  037%=      5-min Rain = 0
KCO1 180016Z 07005KT 16/02 A3009 RMK A01 T01630017  RH  037%=      5-min Rain = 0
KCO1 180017Z 07005KT 16/02 A3009 RMK A01 T01630017  RH  037%=      5-min Rain = 0
KCO1 180018Z 07005KT 16/02 A3009 RMK A01 T01620017  RH  037%=      5-min Rain = 0
KCO1 180019Z 07005KT 16/02 A3009 RMK A01 T01620016  RH  037%=      5-min Rain = 0
KCO1 180020Z 07005KT 16/02 A3009 RMK A01 T01620016  RH  037%=      5-min Rain = 0
KCO1 180021Z 07005KT 16/02 A3009 RMK A01 T01610017  RH  038%=      5-min Rain = 0
KCO1 180022Z 07005KT 16/02 A301 RMK A01 T01600017  RH  038%=      5-min Rain = 0
KCO1 180023Z 07005KT 16/02 A301 RMK A01 T01600017  RH  038%=      5-min Rain = 0
KCO1 180024Z 08005KT 16/02 A301 RMK A01 T01590017  RH  038%=      5-min Rain = 0
KCO1 180025Z 08005KT 16/02 A301 RMK A01 T01580018  RH  039%=      5-min Rain = 0
KCO1 180026Z 08006KT 16/02 A301 RMK A01 T01570017  RH  039%=      5-min Rain = 0
KCO1 180027Z 08005KT 16/02 A301 RMK A01 T01560016  RH  039%=      5-min Rain = 0
KCO1 180028Z 08006KT 16/02 A301 RMK A01 T01560017  RH  039%=      5-min Rain = 0
KCO1 180029Z 08006KT 16/02 A301 RMK A01 T01560017  RH  039%=      5-min Rain = 0
KCO1 180030Z 09006KT 16/02 A301 RMK A01 T01550017  RH  039%=      5-min Rain = 0
KCO1 180031Z 09006KT 15/02 A301 RMK A01 T01540017  RH  039%=      5-min Rain = 0
KCO1 180032Z 09007KT 15/02 A3009 RMK A01 T01540017  RH  040%=      5-min Rain = 0
KCO1 180033Z 09007KT 15/02 A3009 RMK A01 T01530017  RH  040%=      5-min Rain = 0
KCO1 180034Z 09007KT 15/02 A3009 RMK A01 T01530018  RH  040%=      5-min Rain = 0
KCO1 180035Z 08007KT 15/02 A3009 RMK A01 T01520019  RH  040%=      5-min Rain = 0
KCO1 180036Z 08007KT 15/02 A3009 RMK A01 T01520019  RH  041%=      5-min Rain = 0
KCO1 180037Z 09007KT 15/02 A3009 RMK A01 T01520019  RH  041%=      5-min Rain = 0
KCO1 180038Z 09007KT 15/02 A3009 RMK A01 T01520020  RH  041%=      5-min Rain = 0
KCO1 180039Z 09007KT 15/02 A3009 RMK A01 T01510019  RH  041%=      5-min Rain = 0
KCO1 180040Z 09007KT 15/02 A3009 RMK A01 T01500019  RH  041%=      5-min Rain = 0
KCO1 180041Z 09007KT 15/02 A3009 RMK A01 T01500019  RH  041%=      5-min Rain = 0
KCO1 180042Z 09007KT 15/02 A3009 RMK A01 T01490019  RH  041%=      5-min Rain = 0
KCO1 180043Z 09007KT 15/02 A3009 RMK A01 T01490020  RH  042%=      5-min Rain = 0
KCO1 180044Z 09007KT 15/02 A3009 RMK A01 T01480019  RH  042%=      5-min Rain = 0
KCO1 180045Z 10008KT 15/02 A3009 RMK A01 T01470020  RH  042%=      5-min Rain = 0
KCO1 180046Z 10008KT 15/02 A3009 RMK A01 T01460020  RH  043%=      5-min Rain = 0
KCO1 180047Z 10008KT 15/02 A3009 RMK A01 T01450020  RH  043%=      5-min Rain = 0
KCO1 180048Z 10008KT 14/02 A3009 RMK A01 T01440020  RH  043%=      5-min Rain = 0
KCO1 180049Z 10008KT 14/02 A3009 RMK A01 T01430021  RH  043%=      5-min Rain = 0
KCO1 180050Z 10008KT 14/02 A3009 RMK A01 T01420021  RH  044%=      5-min Rain = 0
KCO1 180051Z 10008KT 14/02 A3009 RMK A01 T01410021  RH  044%=      5-min Rain = 0
KCO1 180052Z 10007KT 14/02 A3009 RMK A01 T01410021  RH  044%=      5-min Rain = 0
KCO1 180053Z 10008KT 14/02 A3009 RMK A01 T01400021  RH  044%=      5-min Rain = 0
KCO1 180054Z 10008KT 14/02 A3009 RMK A01 T01400021  RH  045%=      5-min Rain = 0
KCO1 180055Z 10008KT 14/02 A3009 RMK A01 T01380021  RH  045%=      5-min Rain = 0
KCO1 180056Z 10008KT 14/02 A3009 RMK A01 T01370021  RH  045%=      5-min Rain = 0
KCO1 180057Z 10008KT 14/02 A3009 RMK A01 T01360020  RH  045%=      5-min Rain = 0
KCO1 180058Z 10008KT 14/02 A3009 RMK A01 T01360020  RH  046%=      5-min Rain = 0
KCO1 180059Z 10008KT 14/02 A3009 RMK A01 T01350021  RH  046%=      5-min Rain = 0
KCO1 180100Z 10008KT 14/02 A3009 RMK A01 T01350021  RH  046%=      5-min Rain = 0
KCO1 180101Z 10008KT 13/02 A3009 RMK A01 T01340020  RH  046%=      5-min Rain = 0
KCO1 180102Z 10008KT 13/02 A3009 RMK A01 T01340020  RH  046%=      5-min Rain = 0
KCO1 180103Z 10008KT 13/02 A3009 RMK A01 T01340020  RH  046%=      5-min Rain = 0
KCO1 180104Z 10008KT 13/02 A3009 RMK A01 T01330020  RH  046%=      5-min Rain = 0
KCO1 180105Z 10008KT 13/02 A3009 RMK A01 T01330020  RH  046%=      5-min Rain = 0
KCO1 180106Z 10009KT 13/02 A3009 RMK A01 T01330020  RH  046%=      5-min Rain = 0
KCO1 180107Z 10008KT 13/02 A3009 RMK A01 T01330020  RH  046%=      5-min Rain = 0
KCO1 180108Z 10008KT 13/02 A3009 RMK A01 T01330020  RH  046%=      5-min Rain = 0
KCO1 180109Z 10008KT 13/02 A3009 RMK A01 T01340020  RH  046%=      5-min Rain = 0
KCO1 180110Z 10008KT 13/02 A3009 RMK A01 T01340020  RH  046%=      5-min Rain = 0
KCO1 180111Z 10007KT 13/02 A3009 RMK A01 T01340020  RH  046%=      5-min Rain = 0
KCO1 180112Z 10008KT 13/02 A3009 RMK A01 T01340020  RH  046%=      5-min Rain = 0
KCO1 180113Z 10007KT 13/02 A3009 RMK A01 T01340020  RH  046%=      5-min Rain = 0
KCO1 180114Z 10007KT 14/02 A3009 RMK A01 T01350020  RH  046%=      5-min Rain = 0
KCO1 180115Z 10007KT 13/02 A3009 RMK A01 T01340020  RH  046%=      5-min Rain = 0
KCO1 180116Z 10008KT 13/02 A3009 RMK A01 T01340021  RH  046%=      5-min Rain = 0
KCO1 180117Z 10008KT 13/02 A3009 RMK A01 T01340021  RH  046%=      5-min Rain = 0
KCO1 180118Z 10008KT 13/02 A3009 RMK A01 T01340022  RH  046%=      5-min Rain = 0
KCO1 180119Z 10007KT 13/02 A3009 RMK A01 T01330021  RH  047%=      5-min Rain = 0
KCO1 180120Z 10007KT 13/02 A3009 RMK A01 T01330022  RH  047%=      5-min Rain = 0
KCO1 180121Z 10008KT 13/02 A3009 RMK A01 T01330022  RH  047%=      5-min Rain = 0
KCO1 180122Z 10008KT 13/02 A3009 RMK A01 T01330022  RH  047%=      5-min Rain = 0
KCO1 180123Z 10007KT 13/02 A3009 RMK A01 T01320022  RH  047%=      5-min Rain = 0
KCO1 180124Z 09006KT 13/02 A3009 RMK A01 T01320022  RH  047%=      5-min Rain = 0
KCO1 180125Z 08005KT 13/02 A3009 RMK A01 T01310023  RH  048%=      5-min Rain = 0
KCO1 180126Z 08005KT 13/02 A3009 RMK A01 T01300022  RH  048%=      5-min Rain = 0
KCO1 180127Z 09006KT 13/02 A3008 RMK A01 T01290023  RH  048%=      5-min Rain = 0
KCO1 180128Z 09006KT 13/02 A3008 RMK A01 T01280022  RH  048%=      5-min Rain = 0
KCO1 180129Z 09007KT 13/02 A3008 RMK A01 T01270022  RH  049%=      5-min Rain = 0
KCO1 180130Z 09007KT 13/02 A3008 RMK A01 T01260022  RH  049%=      5-min Rain = 0
KCO1 180131Z 10007KT 13/02 A3008 RMK A01 T01250022  RH  049%=      5-min Rain = 0
KCO1 180132Z 10007KT 13/02 A3008 RMK A01 T01250022  RH  049%=      5-min Rain = 0
KCO1 180133Z 10007KT 13/02 A3008 RMK A01 T01250022  RH  049%=      5-min Rain = 0
KCO1 180134Z 10007KT 13/02 A3008 RMK A01 T01250022  RH  049%=      5-min Rain = 0
KCO1 180135Z 10007KT 13/02 A3008 RMK A01 T01250022  RH  049%=      5-min Rain = 0
KCO1 180136Z 10007KT 13/02 A3008 RMK A01 T01250022  RH  050%=      5-min Rain = 0
KCO1 180137Z 11007KT 12/02 A3008 RMK A01 T01240023  RH  050%=      5-min Rain = 0
KCO1 180138Z 11007KT 12/02 A3008 RMK A01 T01230023  RH  050%=      5-min Rain = 0
KCO1 180139Z 11007KT 12/02 A3008 RMK A01 T01220023  RH  051%=      5-min Rain = 0
KCO1 180140Z 11008KT 12/02 A3008 RMK A01 T01210024  RH  051%=      5-min Rain = 0
KCO1 180141Z 11008KT 12/02 A3008 RMK A01 T01200024  RH  052%=      5-min Rain = 0
KCO1 180142Z 11008KT 12/03 A3008 RMK A01 T01200025  RH  052%=      5-min Rain = 0
KCO1 180143Z 11008KT 12/03 A3008 RMK A01 T01200025  RH  052%=      5-min Rain = 0
KCO1 180144Z 11008KT 12/03 A3008 RMK A01 T01200025  RH  052%=      5-min Rain = 0
KCO1 180145Z 11008KT 12/03 A3008 RMK A01 T01200025  RH  052%=      5-min Rain = 0
KCO1 180146Z 11008KT 12/03 A3008 RMK A01 T01200025  RH  052%=      5-min Rain = 0
KCO1 180147Z 11008KT 12/03 A3008 RMK A01 T01200025  RH  052%=      5-min Rain = 0
KCO1 180148Z 11008KT 12/03 A3008 RMK A01 T01210026  RH  052%=      5-min Rain = 0
KCO1 180149Z 11007KT 12/03 A3008 RMK A01 T01220026  RH  052%=      5-min Rain = 0
KCO1 180150Z 11007KT 12/03 A3008 RMK A01 T01230026  RH  052%=      5-min Rain = 0
KCO1 180151Z 11007KT 12/03 A3008 RMK A01 T01230026  RH  051%=      5-min Rain = 0
KCO1 180152Z 11007KT 12/03 A3008 RMK A01 T01240026  RH  051%=      5-min Rain = 0
KCO1 180153Z 11007KT 12/03 A3008 RMK A01 T01230026  RH  052%=      5-min Rain = 0
KCO1 180154Z 11007KT 12/03 A3008 RMK A01 T01230027  RH  052%=      5-min Rain = 0
KCO1 180155Z 11007KT 12/03 A3007 RMK A01 T01230027  RH  052%=      5-min Rain = 0
KCO1 180156Z 11007KT 12/03 A3007 RMK A01 T01220027  RH  052%=      5-min Rain = 0
KCO1 180157Z 11007KT 12/03 A3007 RMK A01 T01220027  RH  052%=      5-min Rain = 0
KCO1 180158Z 11007KT 12/03 A3007 RMK A01 T01220027  RH  052%=      5-min Rain = 0
KCO1 180159Z 11007KT 12/03 A3007 RMK A01 T01210027  RH  052%=      5-min Rain = 0
KCO1 180200Z 11007KT 12/03 A3007 RMK A01 T01200027  RH  053%=      5-min Rain = 0
KCO1 180201Z 11006KT 12/03 A3007 RMK A01 T01200027  RH  053%=      5-min Rain = 0
KCO1 180202Z 11006KT 12/03 A3007 RMK A01 T01190026  RH  053%=      5-min Rain = 0
KCO1 180203Z 11006KT 12/03 A3007 RMK A01 T01180026  RH  053%=      5-min Rain = 0
KCO1 180204Z 11006KT 12/03 A3007 RMK A01 T01170026  RH  053%=      5-min Rain = 0
KCO1 180205Z 12006KT 12/03 A3007 RMK A01 T01170026  RH  054%=      5-min Rain = 0
KCO1 180206Z 12006KT 12/03 A3007 RMK A01 T01160026  RH  054%=      5-min Rain = 0
KCO1 180207Z 12006KT 12/03 A3007 RMK A01 T01160027  RH  054%=      5-min Rain = 0
KCO1 180208Z 12006KT 12/03 A3007 RMK A01 T01160027  RH  054%=      5-min Rain = 0
KCO1 180209Z 12006KT 12/03 A3007 RMK A01 T01150026  RH  054%=      5-min Rain = 0
KCO1 180210Z 12006KT 11/03 A3008 RMK A01 T01140026  RH  055%=      5-min Rain = 0
KCO1 180211Z 12006KT 11/03 A3008 RMK A01 T01140026  RH  055%=      5-min Rain = 0
KCO1 180212Z 12006KT 11/03 A3008 RMK A01 T01130026  RH  055%=      5-min Rain = 0
KCO1 180213Z 12007KT 11/03 A3008 RMK A01 T01120026  RH  055%=      5-min Rain = 0
KCO1 180214Z 12007KT 11/03 A3008 RMK A01 T01120026  RH  055%=      5-min Rain = 0
KCO1 180215Z 12007KT 11/03 A3008 RMK A01 T01110026  RH  056%=      5-min Rain = 0
KCO1 180216Z 12007KT 11/03 A3008 RMK A01 T01110026  RH  056%=      5-min Rain = 0
KCO1 180217Z 12007KT 11/03 A3008 RMK A01 T01110026  RH  056%=      5-min Rain = 0
KCO1 180218Z 12006KT 11/03 A3008 RMK A01 T01110026  RH  056%=      5-min Rain = 0
KCO1 180219Z 12006KT 11/03 A3008 RMK A01 T01110026  RH  056%=      5-min Rain = 0
KCO1 180220Z 12005KT 11/03 A3008 RMK A01 T01110027  RH  056%=      5-min Rain = 0
KCO1 180221Z 12005KT 11/03 A3008 RMK A01 T01110026  RH  056%=      5-min Rain = 0
KCO1 180222Z 12005KT 11/03 A3008 RMK A01 T01100026  RH  056%=      5-min Rain = 0
KCO1 180223Z 12006KT 11/03 A3008 RMK A01 T01100026  RH  056%=      5-min Rain = 0
KCO1 180224Z 12005KT 11/03 A3008 RMK A01 T01100026  RH  056%=      5-min Rain = 0
KCO1 180225Z 13005KT 11/03 A3008 RMK A01 T01090026  RH  056%=      5-min Rain = 0
KCO1 180226Z 13006KT 11/03 A3008 RMK A01 T01090026  RH  056%=      5-min Rain = 0
KCO1 180227Z 12006KT 11/03 A3008 RMK A01 T01080025  RH  057%=      5-min Rain = 0
KCO1 180228Z 12006KT 11/03 A3008 RMK A01 T01070025  RH  057%=      5-min Rain = 0
KCO1 180229Z 12006KT 11/02 A3008 RMK A01 T01050024  RH  057%=      5-min Rain = 0
KCO1 180230Z 12006KT 10/02 A3008 RMK A01 T01040024  RH  058%=      5-min Rain = 0
KCO1 180231Z 12006KT 10/02 A3008 RMK A01 T01030024  RH  058%=      5-min Rain = 0
KCO1 180232Z 12006KT 10/03 A3008 RMK A01 T01030025  RH  058%=      5-min Rain = 0
KCO1 180233Z 12006KT 10/02 A3008 RMK A01 T01020024  RH  059%=      5-min Rain = 0
KCO1 180234Z 12006KT 10/02 A3008 RMK A01 T01010024  RH  059%=      5-min Rain = 0
KCO1 180235Z 12006KT 10/03 A3008 RMK A01 T01010025  RH  059%=      5-min Rain = 0
KCO1 180236Z 12006KT 10/02 A3008 RMK A01 T01000024  RH  059%=      5-min Rain = 0
KCO1 180237Z 13006KT 10/03 A3008 RMK A01 T01000025  RH  060%=      5-min Rain = 0
KCO1 180238Z 13006KT 10/03 A3008 RMK A01 T00990025  RH  060%=      5-min Rain = 0
KCO1 180239Z 13006KT 10/03 A3008 RMK A01 T00990025  RH  060%=      5-min Rain = 0
KCO1 180240Z 13006KT 10/03 A3008 RMK A01 T00980025  RH  060%=      5-min Rain = 0
KCO1 180241Z 13007KT 10/02 A3008 RMK A01 T00980024  RH  060%=      5-min Rain = 0
KCO1 180242Z 13007KT 10/03 A3008 RMK A01 T00970025  RH  061%=      5-min Rain = 0
KCO1 180243Z 14007KT 10/03 A3008 RMK A01 T00970025  RH  061%=      5-min Rain = 0
KCO1 180244Z 14007KT 10/02 A3008 RMK A01 T00960024  RH  061%=      5-min Rain = 0
KCO1 180245Z 13007KT 10/03 A3008 RMK A01 T00960025  RH  061%=      5-min Rain = 0
KCO1 180246Z 13007KT 10/03 A3008 RMK A01 T00960025  RH  061%=      5-min Rain = 0
KCO1 180247Z 14007KT 10/03 A3008 RMK A01 T00960025  RH  061%=      5-min Rain = 0
KCO1 180248Z 15006KT 10/03 A3008 RMK A01 T00970026  RH  061%=      5-min Rain = 0
KCO1 180249Z 16005KT 10/03 A3008 RMK A01 T00970026  RH  061%=      5-min Rain = 0
KCO1 180250Z 16005KT 10/03 A3008 RMK A01 T00970027  RH  062%=      5-min Rain = 0
KCO1 180251Z 15006KT 10/03 A3008 RMK A01 T00960027  RH  062%=      5-min Rain = 0
KCO1 180252Z 15006KT 10/03 A3008 RMK A01 T00950026  RH  062%=      5-min Rain = 0
KCO1 180253Z 15007KT 10/03 A3008 RMK A01 T00960026  RH  062%=      5-min Rain = 0
KCO1 180254Z 15007KT 10/03 A3008 RMK A01 T00950025  RH  062%=      5-min Rain = 0
KCO1 180255Z 15006KT 10/03 A3008 RMK A01 T00950025  RH  062%=      5-min Rain = 0
KCO1 180256Z 16006KT 10/03 A3008 RMK A01 T00950026  RH  062%=      5-min Rain = 0
KCO1 180257Z 15005KT 10/03 A3008 RMK A01 T00950026  RH  062%=      5-min Rain = 0
KCO1 180258Z 15005KT 09/03 A3008 RMK A01 T00940027  RH  063%=      5-min Rain = 0
KCO1 180259Z 15005KT 09/03 A3008 RMK A01 T00940027  RH  063%=      5-min Rain = 0
KCO1 180300Z 15005KT 09/03 A3008 RMK A01 T00940027  RH  063%=      5-min Rain = 0
KCO1 180301Z 15004KT 09/03 A3008 RMK A01 T00940027  RH  063%=      5-min Rain = 0
KCO1 180302Z 15003KT 09/03 A3008 RMK A01 T00940026  RH  063%=      5-min Rain = 0
KCO1 180303Z 16003KT 09/03 A3008 RMK A01 T00940026  RH  062%=      5-min Rain = 0
KCO1 180304Z 16002KT 09/03 A3008 RMK A01 T00940026  RH  062%=      5-min Rain = 0
KCO1 180305Z 15002KT 09/03 A3008 RMK A01 T00930026  RH  063%=      5-min Rain = 0
KCO1 180306Z 13001KT 09/03 A3008 RMK A01 T00920026  RH  063%=      5-min Rain = 0
KCO1 180307Z 10001KT 09/03 A3008 RMK A01 T00890025  RH  064%=      5-min Rain = 0
KCO1 180308Z 06001KT 09/03 A3007 RMK A01 T00870025  RH  065%=      5-min Rain = 0
KCO1 180309Z 04001KT 09/03 A3007 RMK A01 T00850025  RH  066%=      5-min Rain = 0
KCO1 180310Z 05001KT 08/02 A3007 RMK A01 T00840024  RH  066%=      5-min Rain = 0
KCO1 180311Z 03001KT 09/03 A3007 RMK A01 T00850025  RH  066%=      5-min Rain = 0
KCO1 180312Z 03001KT 08/02 A3007 RMK A01 T00840024  RH  066%=      5-min Rain = 0
KCO1 180313Z 03001KT 08/02 A3007 RMK A01 T00840024  RH  066%=      5-min Rain = 0
KCO1 180314Z 05001KT 09/03 A3007 RMK A01 T00850025  RH  066%=      5-min Rain = 0
KCO1 180315Z 05001KT 09/03 A3007 RMK A01 T00870025  RH  065%=      5-min Rain = 0
KCO1 180316Z 05001KT 09/03 A3007 RMK A01 T00890025  RH  064%=      5-min Rain = 0
KCO1 180317Z 06001KT 09/03 A3007 RMK A01 T00890025  RH  064%=      5-min Rain = 0
KCO1 180318Z 07001KT 09/03 A3007 RMK A01 T00900025  RH  064%=      5-min Rain = 0
KCO1 180319Z 08001KT 09/02 A3007 RMK A01 T00890024  RH  064%=      5-min Rain = 0
KCO1 180320Z 10001KT 09/02 A3007 RMK A01 T00890024  RH  064%=      5-min Rain = 0
KCO1 180321Z 11001KT 09/02 A3007 RMK A01 T00880024  RH  064%=      5-min Rain = 0
KCO1 180322Z 12002KT 09/02 A3007 RMK A01 T00880024  RH  064%=      5-min Rain = 0
KCO1 180323Z 13002KT 09/02 A3007 RMK A01 T00870024  RH  065%=      5-min Rain = 0
KCO1 180324Z 13002KT 09/03 A3007 RMK A01 T00870025  RH  065%=      5-min Rain = 0
KCO1 180325Z 13002KT 09/03 A3007 RMK A01 T00870025  RH  065%=      5-min Rain = 0
KCO1 180326Z 13002KT 09/03 A3007 RMK A01 T00870025  RH  065%=      5-min Rain = 0
KCO1 180327Z 13002KT 09/03 A3007 RMK A01 T00880025  RH  065%=      5-min Rain = 0
KCO1 180328Z 12002KT 09/02 A3007 RMK A01 T00880024  RH  064%=      5-min Rain = 0
KCO1 180329Z 10001KT 09/02 A3007 RMK A01 T00850022  RH  065%=      5-min Rain = 0
KCO1 180330Z 05001KT 08/02 A3007 RMK A01 T00830024  RH  066%=      5-min Rain = 0
KCO1 180331Z 02002KT 08/03 A3007 RMK A01 T00820025  RH  067%=      5-min Rain = 0
KCO1 180332Z 02002KT 08/03 A3007 RMK A01 T00820025  RH  067%=      5-min Rain = 0
KCO1 180333Z 02002KT 08/03 A3007 RMK A01 T00840025  RH  066%=      5-min Rain = 0
KCO1 180334Z 03001KT 09/03 A3007 RMK A01 T00870026  RH  065%=      5-min Rain = 0
KCO1 180335Z 04001KT 09/03 A3007 RMK A01 T00890025  RH  064%=      5-min Rain = 0
KCO1 180336Z 06001KT 09/03 A3007 RMK A01 T00900025  RH  064%=      5-min Rain = 0
KCO1 180337Z 06001KT 09/02 A3007 RMK A01 T00890024  RH  064%=      5-min Rain = 0
KCO1 180338Z 10001KT 09/02 A3007 RMK A01 T00880023  RH  064%=      5-min Rain = 0
KCO1 180339Z 13002KT 08/02 A3007 RMK A01 T00840022  RH  065%=      5-min Rain = 0
KCO1 180340Z 16002KT 08/02 A3007 RMK A01 T00820023  RH  066%=      5-min Rain = 0
KCO1 180341Z 17003KT 08/02 A3007 RMK A01 T00810023  RH  067%=      5-min Rain = 0
KCO1 180342Z 16003KT 08/02 A3007 RMK A01 T00810024  RH  067%=      5-min Rain = 0
KCO1 180343Z 17004KT 08/02 A3007 RMK A01 T00820024  RH  067%=      5-min Rain = 0
KCO1 180344Z 18004KT 08/03 A3007 RMK A01 T00840025  RH  066%=      5-min Rain = 0
KCO1 180345Z 18005KT 09/03 A3007 RMK A01 T00860025  RH  065%=      5-min Rain = 0
KCO1 180346Z 18004KT 09/03 A3007 RMK A01 T00870025  RH  065%=      5-min Rain = 0
KCO1 180347Z 18004KT 09/02 A3007 RMK A01 T00890024  RH  064%=      5-min Rain = 0
KCO1 180348Z 18004KT 09/02 A3007 RMK A01 T00930024  RH  062%=      5-min Rain = 0
KCO1 180349Z 18003KT 10/02 A3007 RMK A01 T00980023  RH  060%=      5-min Rain = 0
KCO1 180350Z 19004KT 10/02 A3007 RMK A01 T01010022  RH  058%=      5-min Rain = 0
KCO1 180351Z 19003KT 10/02 A3007 RMK A01 T01040020  RH  056%=      5-min Rain = 0
KCO1 180352Z 19004KT 11/02 A3007 RMK A01 T01080019  RH  054%=      5-min Rain = 0
KCO1 180353Z 18005KT 11/02 A3007 RMK A01 T01110017  RH  052%=      5-min Rain = 0
KCO1 180354Z 18006KT 11/02 A3007 RMK A01 T01110015  RH  052%=      5-min Rain = 0
KCO1 180355Z 18006KT 11/01 A3007 RMK A01 T01120014  RH  051%=      5-min Rain = 0
KCO1 180356Z 18005KT 11/01 A3007 RMK A01 T01130013  RH  050%=      5-min Rain = 0
KCO1 180357Z 18005KT 11/01 A3006 RMK A01 T01140013  RH  050%=      5-min Rain = 0
KCO1 180358Z 17005KT 11/01 A3006 RMK A01 T01140013  RH  050%=      5-min Rain = 0
KCO1 180359Z 18005KT 11/01 A3006 RMK A01 T01140012  RH  049%=      5-min Rain = 0
KCO1 180400Z 17005KT 11/01 A3006 RMK A01 T01140012  RH  049%=      5-min Rain = 0
KCO1 180401Z 18006KT 11/01 A3006 RMK A01 T01140011  RH  049%=      5-min Rain = 0
KCO1 180402Z 17004KT 11/01 A3006 RMK A01 T01140011  RH  049%=      5-min Rain = 0
KCO1 180403Z 17004KT 11/01 A3006 RMK A01 T01130012  RH  050%=      5-min Rain = 0
KCO1 180404Z 18005KT 11/01 A3006 RMK A01 T01100012  RH  051%=      5-min Rain = 0
KCO1 180405Z 18004KT 11/01 A3006 RMK A01 T01070012  RH  052%=      5-min Rain = 0
KCO1 180406Z 18004KT 11/01 A3006 RMK A01 T01050012  RH  052%=      5-min Rain = 0
KCO1 180407Z 18004KT 10/01 A3006 RMK A01 T01040012  RH  053%=      5-min Rain = 0
KCO1 180408Z 18004KT 10/01 A3006 RMK A01 T01030012  RH  053%=      5-min Rain = 0
KCO1 180409Z 18004KT 10/01 A3006 RMK A01 T01030012  RH  053%=      5-min Rain = 0
KCO1 180410Z 18005KT 10/01 A3006 RMK A01 T01030012  RH  053%=      5-min Rain = 0
KCO1 180411Z 18005KT 10/01 A3006 RMK A01 T01020012  RH  054%=      5-min Rain = 0
KCO1 180412Z 18005KT 10/01 A3006 RMK A01 T01000013  RH  055%=      5-min Rain = 0
KCO1 180413Z 18006KT 10/01 A3006 RMK A01 T00980012  RH  055%=      5-min Rain = 0
KCO1 180414Z 18006KT 10/01 A3006 RMK A01 T00960012  RH  056%=      5-min Rain = 0
KCO1 180415Z 18007KT 10/01 A3006 RMK A01 T00950011  RH  056%=      5-min Rain = 0
KCO1 180416Z 18007KT 10/01 A3006 RMK A01 T00960011  RH  055%=      5-min Rain = 0
KCO1 180417Z 19008KT 10/01 A3006 RMK A01 T00980010  RH  054%=      5-min Rain = 0
KCO1 180418Z 19008KT 10/01 A3006 RMK A01 T00990010  RH  054%=      5-min Rain = 0
KCO1 180419Z 19009KT 10/01 A3006 RMK A01 T01000009  RH  053%=      5-min Rain = 0
KCO1 180420Z 19009KT 10/01 A3006 RMK A01 T01020009  RH  052%=      5-min Rain = 0
KCO1 180421Z 19010KT 10/01 A3006 RMK A01 T01040009  RH  052%=      5-min Rain = 0
KCO1 180422Z 19009KT 10/01 A3006 RMK A01 T01040009  RH  051%=      5-min Rain = 0
KCO1 180423Z 19009KT 11/01 A3006 RMK A01 T01050009  RH  051%=      5-min Rain = 0
KCO1 180424Z 19009KT 10/01 A3006 RMK A01 T01040008  RH  051%=      5-min Rain = 0
KCO1 180425Z 19009KT 10/01 A3006 RMK A01 T01040008  RH  051%=      5-min Rain = 0
KCO1 180426Z 19009KT 10/01 A3006 RMK A01 T01030008  RH  052%=      5-min Rain = 0
KCO1 180427Z 19009KT 10/01 A3006 RMK A01 T01020008  RH  052%=      5-min Rain = 0
KCO1 180428Z 19009KT 10/01 A3006 RMK A01 T01020008  RH  052%=      5-min Rain = 0
KCO1 180429Z 19008KT 10/01 A3005 RMK A01 T01010008  RH  052%=      5-min Rain = 0
KCO1 180430Z 19008KT 10/01 A3005 RMK A01 T01000008  RH  053%=      5-min Rain = 0
KCO1 180431Z 19007KT 10/01 A3005 RMK A01 T00990008  RH  053%=      5-min Rain = 0
KCO1 180432Z 19007KT 10/01 A3006 RMK A01 T00980007  RH  053%=      5-min Rain = 0
KCO1 180433Z 20007KT 10/01 A3006 RMK A01 T00970007  RH  053%=      5-min Rain = 0
KCO1 180434Z 20006KT 10/01 A3006 RMK A01 T00970007  RH  053%=      5-min Rain = 0
KCO1 180435Z 20005KT 10/01 A3006 RMK A01 T00970007  RH  053%=      5-min Rain = 0
KCO1 180436Z 21006KT 10/01 A3006 RMK A01 T00970006  RH  053%=      5-min Rain = 0
KCO1 180437Z 21007KT 10/01 A3006 RMK A01 T00970006  RH  053%=      5-min Rain = 0
KCO1 180438Z 21007KT 10/01 A3006 RMK A01 T00980005  RH  053%=      5-min Rain = 0
KCO1 180439Z 20007KT 10/01 A3006 RMK A01 T00980005  RH  052%=      5-min Rain = 0
KCO1 180440Z 21008KT 10/01 A3006 RMK A01 T00970005  RH  053%=      5-min Rain = 0
KCO1 180441Z 21006KT 10/01 A3006 RMK A01 T00970005  RH  053%=      5-min Rain = 0
KCO1 180442Z 21006KT 10/01 A3006 RMK A01 T00970005  RH  053%=      5-min Rain = 0
KCO1 180443Z 21008KT 10/01 A3006 RMK A01 T00970005  RH  053%=      5-min Rain = 0
KCO1 180444Z 21008KT 10/01 A3006 RMK A01 T00970005  RH  053%=      5-min Rain = 0
KCO1 180445Z 21008KT 10/01 A3006 RMK A01 T00970005  RH  053%=      5-min Rain = 0
KCO1 180446Z 21008KT 10/01 A3006 RMK A01 T00970005  RH  052%=      5-min Rain = 0
KCO1 180447Z 21006KT 10/00 A3006 RMK A01 T00980004  RH  052%=      5-min Rain = 0
KCO1 180448Z 21005KT 10/01 A3006 RMK A01 T00980005  RH  052%=      5-min Rain = 0
KCO1 180449Z 21005KT 10/01 A3006 RMK A01 T00980006  RH  053%=      5-min Rain = 0
KCO1 180450Z 21007KT 10/01 A3006 RMK A01 T00970006  RH  053%=      5-min Rain = 0
KCO1 180451Z 21007KT 10/01 A3006 RMK A01 T00970005  RH  053%=      5-min Rain = 0
KCO1 180452Z 21006KT 10/01 A3006 RMK A01 T00970005  RH  053%=      5-min Rain = 0
KCO1 180453Z 22006KT 10/01 A3006 RMK A01 T00970005  RH  053%=      5-min Rain = 0
KCO1 180454Z 22006KT 10/01 A3006 RMK A01 T00960005  RH  053%=      5-min Rain = 0
KCO1 180455Z 22005KT 10/01 A3006 RMK A01 T00960005  RH  053%=      5-min Rain = 0
KCO1 180456Z 22005KT 10/01 A3006 RMK A01 T00950005  RH  053%=      5-min Rain = 0
KCO1 180457Z 22005KT 09/01 A3006 RMK A01 T00940005  RH  054%=      5-min Rain = 0
KCO1 180458Z 22006KT 09/01 A3006 RMK A01 T00930005  RH  054%=      5-min Rain = 0
KCO1 180459Z 21006KT 09/01 A3006 RMK A01 T00930005  RH  054%=      5-min Rain = 0
KCO1 180500Z 21006KT 09/01 A3006 RMK A01 T00920005  RH  054%=      5-min Rain = 0
KCO1 180501Z 21006KT 09/01 A3006 RMK A01 T00920005  RH  055%=      5-min Rain = 0
KCO1 180502Z 21006KT 09/01 A3006 RMK A01 T00920005  RH  054%=      5-min Rain = 0
KCO1 180503Z 21006KT 09/01 A3006 RMK A01 T00920005  RH  054%=      5-min Rain = 0
KCO1 180504Z 21005KT 09/01 A3006 RMK A01 T00920006  RH  055%=      5-min Rain = 0
KCO1 180505Z 21005KT 09/01 A3006 RMK A01 T00920006  RH  055%=      5-min Rain = 0
KCO1 180506Z 22006KT 09/01 A3006 RMK A01 T00920006  RH  055%=      5-min Rain = 0
KCO1 180507Z 22006KT 09/01 A3006 RMK A01 T00920005  RH  054%=      5-min Rain = 0
KCO1 180508Z 22006KT 09/01 A3006 RMK A01 T00930005  RH  054%=      5-min Rain = 0
KCO1 180509Z 21005KT 09/01 A3006 RMK A01 T00930005  RH  054%=      5-min Rain = 0
KCO1 180510Z 20005KT 09/01 A3006 RMK A01 T00930006  RH  055%=      5-min Rain = 0
KCO1 180511Z 20005KT 09/01 A3006 RMK A01 T00910006  RH  055%=      5-min Rain = 0
KCO1 180512Z 21006KT 09/01 A3006 RMK A01 T00910006  RH  055%=      5-min Rain = 0
KCO1 180513Z 21006KT 09/01 A3006 RMK A01 T00900006  RH  055%=      5-min Rain = 0
KCO1 180514Z 22006KT 09/01 A3006 RMK A01 T00900005  RH  055%=      5-min Rain = 0
KCO1 180515Z 22006KT 09/01 A3006 RMK A01 T00910005  RH  055%=      5-min Rain = 0
KCO1 180516Z 22006KT 09/00 A3006 RMK A01 T00910004  RH  055%=      5-min Rain = 0
KCO1 180517Z 21007KT 09/01 A3006 RMK A01 T00910005  RH  055%=      5-min Rain = 0
KCO1 180518Z 21006KT 09/00 A3006 RMK A01 T00900004  RH  055%=      5-min Rain = 0
KCO1 180519Z 23007KT 09/01 A3006 RMK A01 T00910005  RH  055%=      5-min Rain = 0
KCO1 180520Z 22008KT 09/00 A3006 RMK A01 T00910004  RH  055%=      5-min Rain = 0
KCO1 180521Z 21008KT 09/00 A3006 RMK A01 T00910004  RH  054%=      5-min Rain = 0
KCO1 180522Z 21007KT 09/00 A3006 RMK A01 T00910004  RH  054%=      5-min Rain = 0
KCO1 180523Z 21007KT 09/01 A3006 RMK A01 T00930005  RH  054%=      5-min Rain = 0
KCO1 180524Z 20006KT 09/01 A3006 RMK A01 T00940006  RH  054%=      5-min Rain = 0
KCO1 180525Z 22004KT 09/01 A3007 RMK A01 T00930006  RH  055%=      5-min Rain = 0
KCO1 180526Z 21006KT 09/01 A3007 RMK A01 T00920006  RH  055%=      5-min Rain = 0
KCO1 180527Z 21005KT 09/01 A3007 RMK A01 T00910005  RH  055%=      5-min Rain = 0
KCO1 180528Z 23005KT 09/01 A3007 RMK A01 T00910005  RH  055%=      5-min Rain = 0
KCO1 180529Z 24004KT 09/01 A3007 RMK A01 T00910005  RH  055%=      5-min Rain = 0
KCO1 180530Z 26002KT 09/01 A3007 RMK A01 T00910006  RH  055%=      5-min Rain = 0
KCO1 180531Z 33003KT 09/01 A3007 RMK A01 T00910006  RH  055%=      5-min Rain = 0
KCO1 180532Z 34005KT 09/01 A3007 RMK A01 T00910006  RH  055%=      5-min Rain = 0
KCO1 180533Z 35006KT 09/01 A3007 RMK A01 T00900006  RH  056%=      5-min Rain = 0
KCO1 180534Z 00005KT 09/01 A3007 RMK A01 T00870005  RH  056%=      5-min Rain = 0
KCO1 180535Z 00005KT 09/01 A3007 RMK A01 T00850005  RH  057%=      5-min Rain = 0
KCO1 180536Z 35006KT 08/01 A3007 RMK A01 T00840006  RH  058%=      5-min Rain = 0
KCO1 180537Z 33005KT 08/01 A3007 RMK A01 T00830006  RH  059%=      5-min Rain = 0
KCO1 180538Z 33004KT 08/01 A3007 RMK A01 T00820007  RH  059%=      5-min Rain = 0
KCO1 180539Z 32003KT 08/01 A3007 RMK A01 T00820006  RH  059%=      5-min Rain = 0
KCO1 180540Z 32003KT 08/01 A3007 RMK A01 T00840007  RH  058%=      5-min Rain = 0
KCO1 180541Z 32004KT 09/01 A3007 RMK A01 T00850007  RH  058%=      5-min Rain = 0
KCO1 180542Z 32003KT 09/01 A3008 RMK A01 T00860006  RH  057%=      5-min Rain = 0
KCO1 180543Z 32003KT 09/01 A3008 RMK A01 T00870006  RH  057%=      5-min Rain = 0
KCO1 180544Z 31002KT 09/01 A3008 RMK A01 T00870006  RH  057%=      5-min Rain = 0
KCO1 180545Z 33001KT 09/01 A3008 RMK A01 T00870007  RH  057%=      5-min Rain = 0
KCO1 180546Z 36002KT 09/01 A3008 RMK A01 T00880007  RH  057%=      5-min Rain = 0
KCO1 180547Z 01001KT 09/01 A3008 RMK A01 T00880007  RH  057%=      5-min Rain = 0
KCO1 180548Z 01002KT 09/01 A3008 RMK A01 T00880007  RH  057%=      5-min Rain = 0
KCO1 180549Z 34002KT 09/01 A3008 RMK A01 T00870007  RH  057%=      5-min Rain = 0
KCO1 180550Z 33002KT 09/01 A3008 RMK A01 T00860007  RH  058%=      5-min Rain = 0
KCO1 180551Z 34002KT 09/01 A3008 RMK A01 T00850008  RH  058%=      5-min Rain = 0
KCO1 180552Z 33003KT 08/01 A3008 RMK A01 T00840007  RH  058%=      5-min Rain = 0
KCO1 180553Z 33004KT 08/01 A3008 RMK A01 T00840007  RH  059%=      5-min Rain = 0
KCO1 180554Z 32003KT 08/01 A3008 RMK A01 T00840007  RH  058%=      5-min Rain = 0
KCO1 180555Z 30003KT 09/01 A3008 RMK A01 T00860006  RH  057%=      5-min Rain = 0
KCO1 180556Z 30003KT 09/01 A3008 RMK A01 T00870007  RH  057%=      5-min Rain = 0
KCO1 180557Z 29004KT 09/01 A3008 RMK A01 T00880006  RH  056%=      5-min Rain = 0
KCO1 180558Z 28003KT 09/01 A3008 RMK A01 T00880006  RH  056%=      5-min Rain = 0
KCO1 180559Z 26003KT 09/01 A3007 RMK A01 T00890005  RH  056%=      5-min Rain = 0

Page generated in 0.1386 seconds.